<?xml version="1.0" encoding="UTF-8" standalone="no" ?>
<gpx xmlns="http://www.topografix.com/GPX/1/1" xmlns:xsi="http://www.w3.org/2001/XMLSchema-instance" xsi:schemaLocation="http://www.topografix.com/GPX/1/1 http://www.topografix.com/GPX/1/1/gpx.xsd" version="1.1" creator="VisuGPX - https://www.visugpx.com">
  <metadata>
    <name>2019-12-18 Cabrespine -Bourdial Serrmijeanne </name>
  </metadata>
  <trk>
    <name><![CDATA[2019-12-18 Cabrespine -Bourdial Serrmijeanne avec Monique, Magalie et Claire]]></name>
    <trkseg>
      <trkpt lat="43.36221" lon="2.46077">
        <ele>327.67</ele>
        <time>2019-12-18T07:36:39Z</time>
      </trkpt>
      <trkpt lat="43.36221" lon="2.46078">
        <ele>325.95</ele>
        <time>2019-12-18T07:36:49Z</time>
      </trkpt>
      <trkpt lat="43.36225" lon="2.46079">
        <ele>325.23</ele>
        <time>2019-12-18T07:36:59Z</time>
      </trkpt>
      <trkpt lat="43.36227" lon="2.4608">
        <ele>324.4</ele>
        <time>2019-12-18T07:37:09Z</time>
      </trkpt>
      <trkpt lat="43.36225" lon="2.4608">
        <ele>324.12</ele>
        <time>2019-12-18T07:37:19Z</time>
      </trkpt>
      <trkpt lat="43.36225" lon="2.46079">
        <ele>324.45</ele>
        <time>2019-12-18T07:37:29Z</time>
      </trkpt>
      <trkpt lat="43.36229" lon="2.46079">
        <ele>324.91</ele>
        <time>2019-12-18T07:37:39Z</time>
      </trkpt>
      <trkpt lat="43.36246" lon="2.46086">
        <ele>324.07</ele>
        <time>2019-12-18T07:37:49Z</time>
      </trkpt>
      <trkpt lat="43.36265" lon="2.46092">
        <ele>324.41</ele>
        <time>2019-12-18T07:37:59Z</time>
      </trkpt>
      <trkpt lat="43.36285" lon="2.46093">
        <ele>329.36</ele>
        <time>2019-12-18T07:38:09Z</time>
      </trkpt>
      <trkpt lat="43.36304" lon="2.46083">
        <ele>334.58</ele>
        <time>2019-12-18T07:38:19Z</time>
      </trkpt>
      <trkpt lat="43.36324" lon="2.46087">
        <ele>333.78</ele>
        <time>2019-12-18T07:38:29Z</time>
      </trkpt>
      <trkpt lat="43.36341" lon="2.46092">
        <ele>332.58</ele>
        <time>2019-12-18T07:38:39Z</time>
      </trkpt>
      <trkpt lat="43.36357" lon="2.46086">
        <ele>334.64</ele>
        <time>2019-12-18T07:38:49Z</time>
      </trkpt>
      <trkpt lat="43.36373" lon="2.46097">
        <ele>335.7</ele>
        <time>2019-12-18T07:38:59Z</time>
      </trkpt>
      <trkpt lat="43.36393" lon="2.4611">
        <ele>336.99</ele>
        <time>2019-12-18T07:39:09Z</time>
      </trkpt>
      <trkpt lat="43.36414" lon="2.46119">
        <ele>336.99</ele>
        <time>2019-12-18T07:39:19Z</time>
      </trkpt>
      <trkpt lat="43.36434" lon="2.4612">
        <ele>335.43</ele>
        <time>2019-12-18T07:39:29Z</time>
      </trkpt>
      <trkpt lat="43.36451" lon="2.46113">
        <ele>335.87</ele>
        <time>2019-12-18T07:39:39Z</time>
      </trkpt>
      <trkpt lat="43.3647" lon="2.46099">
        <ele>336.27</ele>
        <time>2019-12-18T07:39:49Z</time>
      </trkpt>
      <trkpt lat="43.3648" lon="2.46074">
        <ele>336.5</ele>
        <time>2019-12-18T07:39:59Z</time>
      </trkpt>
      <trkpt lat="43.36493" lon="2.46049">
        <ele>338.37</ele>
        <time>2019-12-18T07:40:09Z</time>
      </trkpt>
      <trkpt lat="43.36513" lon="2.46031">
        <ele>341.33</ele>
        <time>2019-12-18T07:40:19Z</time>
      </trkpt>
      <trkpt lat="43.3653" lon="2.46013">
        <ele>344.76</ele>
        <time>2019-12-18T07:40:29Z</time>
      </trkpt>
      <trkpt lat="43.36544" lon="2.45995">
        <ele>347.02</ele>
        <time>2019-12-18T07:40:39Z</time>
      </trkpt>
      <trkpt lat="43.36561" lon="2.45978">
        <ele>347.54</ele>
        <time>2019-12-18T07:40:49Z</time>
      </trkpt>
      <trkpt lat="43.3658" lon="2.45965">
        <ele>347.27</ele>
        <time>2019-12-18T07:40:59Z</time>
      </trkpt>
      <trkpt lat="43.36601" lon="2.45949">
        <ele>347.18</ele>
        <time>2019-12-18T07:41:09Z</time>
      </trkpt>
      <trkpt lat="43.36619" lon="2.45939">
        <ele>347.92</ele>
        <time>2019-12-18T07:41:19Z</time>
      </trkpt>
      <trkpt lat="43.36639" lon="2.45929">
        <ele>350.3</ele>
        <time>2019-12-18T07:41:29Z</time>
      </trkpt>
      <trkpt lat="43.36658" lon="2.45912">
        <ele>349.75</ele>
        <time>2019-12-18T07:41:39Z</time>
      </trkpt>
      <trkpt lat="43.36673" lon="2.45896">
        <ele>351.61</ele>
        <time>2019-12-18T07:41:49Z</time>
      </trkpt>
      <trkpt lat="43.36686" lon="2.45882">
        <ele>353.15</ele>
        <time>2019-12-18T07:41:59Z</time>
      </trkpt>
      <trkpt lat="43.36699" lon="2.45864">
        <ele>355.84</ele>
        <time>2019-12-18T07:42:09Z</time>
      </trkpt>
      <trkpt lat="43.3671" lon="2.45848">
        <ele>355.58</ele>
        <time>2019-12-18T07:42:19Z</time>
      </trkpt>
      <trkpt lat="43.36719" lon="2.4583">
        <ele>356.23</ele>
        <time>2019-12-18T07:42:29Z</time>
      </trkpt>
      <trkpt lat="43.36729" lon="2.4582">
        <ele>356.47</ele>
        <time>2019-12-18T07:42:39Z</time>
      </trkpt>
      <trkpt lat="43.3674" lon="2.45807">
        <ele>358.69</ele>
        <time>2019-12-18T07:42:49Z</time>
      </trkpt>
      <trkpt lat="43.36748" lon="2.45793">
        <ele>361.46</ele>
        <time>2019-12-18T07:42:59Z</time>
      </trkpt>
      <trkpt lat="43.36756" lon="2.45783">
        <ele>363.93</ele>
        <time>2019-12-18T07:43:09Z</time>
      </trkpt>
      <trkpt lat="43.36766" lon="2.45775">
        <ele>364.92</ele>
        <time>2019-12-18T07:43:19Z</time>
      </trkpt>
      <trkpt lat="43.36778" lon="2.45764">
        <ele>366.23</ele>
        <time>2019-12-18T07:43:29Z</time>
      </trkpt>
      <trkpt lat="43.36794" lon="2.45756">
        <ele>360.7</ele>
        <time>2019-12-18T07:43:39Z</time>
      </trkpt>
      <trkpt lat="43.36809" lon="2.45747">
        <ele>356.15</ele>
        <time>2019-12-18T07:43:49Z</time>
      </trkpt>
      <trkpt lat="43.36823" lon="2.4574">
        <ele>352</ele>
        <time>2019-12-18T07:43:59Z</time>
      </trkpt>
      <trkpt lat="43.36837" lon="2.45732">
        <ele>350.94</ele>
        <time>2019-12-18T07:44:09Z</time>
      </trkpt>
      <trkpt lat="43.36853" lon="2.45724">
        <ele>349.07</ele>
        <time>2019-12-18T07:44:19Z</time>
      </trkpt>
      <trkpt lat="43.36869" lon="2.45715">
        <ele>349.21</ele>
        <time>2019-12-18T07:44:29Z</time>
      </trkpt>
      <trkpt lat="43.36885" lon="2.45713">
        <ele>351.3</ele>
        <time>2019-12-18T07:44:39Z</time>
      </trkpt>
      <trkpt lat="43.369" lon="2.45708">
        <ele>352.31</ele>
        <time>2019-12-18T07:44:49Z</time>
      </trkpt>
      <trkpt lat="43.36913" lon="2.45712">
        <ele>356.05</ele>
        <time>2019-12-18T07:44:59Z</time>
      </trkpt>
      <trkpt lat="43.36928" lon="2.45718">
        <ele>361.07</ele>
        <time>2019-12-18T07:45:09Z</time>
      </trkpt>
      <trkpt lat="43.36942" lon="2.45722">
        <ele>363.23</ele>
        <time>2019-12-18T07:45:19Z</time>
      </trkpt>
      <trkpt lat="43.36955" lon="2.45726">
        <ele>368.15</ele>
        <time>2019-12-18T07:45:29Z</time>
      </trkpt>
      <trkpt lat="43.36967" lon="2.45737">
        <ele>374.13</ele>
        <time>2019-12-18T07:45:39Z</time>
      </trkpt>
      <trkpt lat="43.36975" lon="2.45746">
        <ele>379.8</ele>
        <time>2019-12-18T07:45:49Z</time>
      </trkpt>
      <trkpt lat="43.36976" lon="2.45747">
        <ele>380.38</ele>
        <time>2019-12-18T07:45:50Z</time>
      </trkpt>
      <trkpt lat="43.36986" lon="2.45759">
        <ele>385.58</ele>
        <time>2019-12-18T07:46:00Z</time>
      </trkpt>
      <trkpt lat="43.36996" lon="2.45772">
        <ele>388.3</ele>
        <time>2019-12-18T07:46:10Z</time>
      </trkpt>
      <trkpt lat="43.37006" lon="2.45784">
        <ele>390.96</ele>
        <time>2019-12-18T07:46:20Z</time>
      </trkpt>
      <trkpt lat="43.37018" lon="2.45797">
        <ele>394.4</ele>
        <time>2019-12-18T07:46:30Z</time>
      </trkpt>
      <trkpt lat="43.37028" lon="2.45814">
        <ele>396.47</ele>
        <time>2019-12-18T07:46:40Z</time>
      </trkpt>
      <trkpt lat="43.37034" lon="2.45828">
        <ele>399.29</ele>
        <time>2019-12-18T07:46:50Z</time>
      </trkpt>
      <trkpt lat="43.37037" lon="2.4583">
        <ele>401.02</ele>
        <time>2019-12-18T07:47:00Z</time>
      </trkpt>
      <trkpt lat="43.37037" lon="2.45835">
        <ele>399.53</ele>
        <time>2019-12-18T07:47:10Z</time>
      </trkpt>
      <trkpt lat="43.37039" lon="2.45835">
        <ele>398.33</ele>
        <time>2019-12-18T07:47:20Z</time>
      </trkpt>
      <trkpt lat="43.37042" lon="2.45836">
        <ele>397.67</ele>
        <time>2019-12-18T07:47:30Z</time>
      </trkpt>
      <trkpt lat="43.37042" lon="2.45835">
        <ele>398.01</ele>
        <time>2019-12-18T07:47:40Z</time>
      </trkpt>
      <trkpt lat="43.37041" lon="2.45835">
        <ele>398.46</ele>
        <time>2019-12-18T07:47:50Z</time>
      </trkpt>
      <trkpt lat="43.3705" lon="2.45851">
        <ele>397.16</ele>
        <time>2019-12-18T07:48:00Z</time>
      </trkpt>
      <trkpt lat="43.37056" lon="2.45867">
        <ele>397.63</ele>
        <time>2019-12-18T07:48:10Z</time>
      </trkpt>
      <trkpt lat="43.37061" lon="2.45885">
        <ele>397.74</ele>
        <time>2019-12-18T07:48:20Z</time>
      </trkpt>
      <trkpt lat="43.37067" lon="2.45905">
        <ele>397.71</ele>
        <time>2019-12-18T07:48:30Z</time>
      </trkpt>
      <trkpt lat="43.37071" lon="2.45926">
        <ele>399.32</ele>
        <time>2019-12-18T07:48:40Z</time>
      </trkpt>
      <trkpt lat="43.37079" lon="2.45942">
        <ele>401.7</ele>
        <time>2019-12-18T07:48:50Z</time>
      </trkpt>
      <trkpt lat="43.37093" lon="2.45937">
        <ele>403.04</ele>
        <time>2019-12-18T07:49:00Z</time>
      </trkpt>
      <trkpt lat="43.37106" lon="2.45929">
        <ele>405.1</ele>
        <time>2019-12-18T07:49:10Z</time>
      </trkpt>
      <trkpt lat="43.3712" lon="2.45928">
        <ele>408.27</ele>
        <time>2019-12-18T07:49:20Z</time>
      </trkpt>
      <trkpt lat="43.37133" lon="2.4592">
        <ele>409.35</ele>
        <time>2019-12-18T07:49:30Z</time>
      </trkpt>
      <trkpt lat="43.37146" lon="2.45915">
        <ele>411.04</ele>
        <time>2019-12-18T07:49:40Z</time>
      </trkpt>
      <trkpt lat="43.3716" lon="2.45911">
        <ele>414.18</ele>
        <time>2019-12-18T07:49:50Z</time>
      </trkpt>
      <trkpt lat="43.37172" lon="2.45912">
        <ele>418.34</ele>
        <time>2019-12-18T07:50:00Z</time>
      </trkpt>
      <trkpt lat="43.37182" lon="2.45918">
        <ele>425.07</ele>
        <time>2019-12-18T07:50:10Z</time>
      </trkpt>
      <trkpt lat="43.37196" lon="2.4592">
        <ele>429.44</ele>
        <time>2019-12-18T07:50:20Z</time>
      </trkpt>
      <trkpt lat="43.3721" lon="2.45917">
        <ele>434.86</ele>
        <time>2019-12-18T07:50:30Z</time>
      </trkpt>
      <trkpt lat="43.37222" lon="2.45917">
        <ele>437.95</ele>
        <time>2019-12-18T07:50:40Z</time>
      </trkpt>
      <trkpt lat="43.37237" lon="2.45915">
        <ele>438.86</ele>
        <time>2019-12-18T07:50:50Z</time>
      </trkpt>
      <trkpt lat="43.37251" lon="2.45914">
        <ele>437.83</ele>
        <time>2019-12-18T07:51:00Z</time>
      </trkpt>
      <trkpt lat="43.37264" lon="2.45911">
        <ele>436.91</ele>
        <time>2019-12-18T07:51:10Z</time>
      </trkpt>
      <trkpt lat="43.37281" lon="2.45911">
        <ele>437.14</ele>
        <time>2019-12-18T07:51:20Z</time>
      </trkpt>
      <trkpt lat="43.37287" lon="2.45912">
        <ele>439.66</ele>
        <time>2019-12-18T07:51:30Z</time>
      </trkpt>
      <trkpt lat="43.37292" lon="2.45912">
        <ele>442.92</ele>
        <time>2019-12-18T07:51:40Z</time>
      </trkpt>
      <trkpt lat="43.37295" lon="2.45914">
        <ele>444.57</ele>
        <time>2019-12-18T07:51:50Z</time>
      </trkpt>
      <trkpt lat="43.37295" lon="2.45914">
        <ele>444.63</ele>
        <time>2019-12-18T07:52:00Z</time>
      </trkpt>
      <trkpt lat="43.37294" lon="2.45914">
        <ele>445.49</ele>
        <time>2019-12-18T07:52:10Z</time>
      </trkpt>
      <trkpt lat="43.37303" lon="2.45916">
        <ele>445.99</ele>
        <time>2019-12-18T07:52:20Z</time>
      </trkpt>
      <trkpt lat="43.37322" lon="2.45927">
        <ele>445.96</ele>
        <time>2019-12-18T07:52:30Z</time>
      </trkpt>
      <trkpt lat="43.37339" lon="2.45928">
        <ele>444.6</ele>
        <time>2019-12-18T07:52:40Z</time>
      </trkpt>
      <trkpt lat="43.3736" lon="2.45936">
        <ele>442.84</ele>
        <time>2019-12-18T07:52:50Z</time>
      </trkpt>
      <trkpt lat="43.37377" lon="2.4595">
        <ele>448.76</ele>
        <time>2019-12-18T07:53:00Z</time>
      </trkpt>
      <trkpt lat="43.37394" lon="2.45968">
        <ele>456.23</ele>
        <time>2019-12-18T07:53:10Z</time>
      </trkpt>
      <trkpt lat="43.37412" lon="2.45984">
        <ele>464.1</ele>
        <time>2019-12-18T07:53:20Z</time>
      </trkpt>
      <trkpt lat="43.37431" lon="2.45991">
        <ele>465.91</ele>
        <time>2019-12-18T07:53:30Z</time>
      </trkpt>
      <trkpt lat="43.37445" lon="2.46004">
        <ele>466.77</ele>
        <time>2019-12-18T07:53:40Z</time>
      </trkpt>
      <trkpt lat="43.37462" lon="2.4602">
        <ele>465.18</ele>
        <time>2019-12-18T07:53:50Z</time>
      </trkpt>
      <trkpt lat="43.37482" lon="2.46028">
        <ele>464.1</ele>
        <time>2019-12-18T07:54:00Z</time>
      </trkpt>
      <trkpt lat="43.37501" lon="2.46035">
        <ele>462.75</ele>
        <time>2019-12-18T07:54:10Z</time>
      </trkpt>
      <trkpt lat="43.3752" lon="2.46043">
        <ele>466.69</ele>
        <time>2019-12-18T07:54:20Z</time>
      </trkpt>
      <trkpt lat="43.37539" lon="2.4605">
        <ele>467.65</ele>
        <time>2019-12-18T07:54:30Z</time>
      </trkpt>
      <trkpt lat="43.37554" lon="2.46055">
        <ele>468.65</ele>
        <time>2019-12-18T07:54:40Z</time>
      </trkpt>
      <trkpt lat="43.37571" lon="2.46055">
        <ele>470.38</ele>
        <time>2019-12-18T07:54:50Z</time>
      </trkpt>
      <trkpt lat="43.37589" lon="2.46053">
        <ele>470.04</ele>
        <time>2019-12-18T07:55:00Z</time>
      </trkpt>
      <trkpt lat="43.37609" lon="2.46045">
        <ele>468.72</ele>
        <time>2019-12-18T07:55:10Z</time>
      </trkpt>
      <trkpt lat="43.3763" lon="2.46047">
        <ele>469.38</ele>
        <time>2019-12-18T07:55:20Z</time>
      </trkpt>
      <trkpt lat="43.37648" lon="2.46056">
        <ele>470.13</ele>
        <time>2019-12-18T07:55:30Z</time>
      </trkpt>
      <trkpt lat="43.37667" lon="2.46061">
        <ele>471.99</ele>
        <time>2019-12-18T07:55:40Z</time>
      </trkpt>
      <trkpt lat="43.37682" lon="2.46075">
        <ele>472.13</ele>
        <time>2019-12-18T07:55:50Z</time>
      </trkpt>
      <trkpt lat="43.37694" lon="2.46091">
        <ele>477.17</ele>
        <time>2019-12-18T07:56:00Z</time>
      </trkpt>
      <trkpt lat="43.37706" lon="2.46102">
        <ele>480.94</ele>
        <time>2019-12-18T07:56:10Z</time>
      </trkpt>
      <trkpt lat="43.37719" lon="2.46116">
        <ele>483.49</ele>
        <time>2019-12-18T07:56:20Z</time>
      </trkpt>
      <trkpt lat="43.37725" lon="2.46121">
        <ele>484.35</ele>
        <time>2019-12-18T07:56:25Z</time>
      </trkpt>
      <trkpt lat="43.37742" lon="2.46127">
        <ele>486.81</ele>
        <time>2019-12-18T07:56:36Z</time>
      </trkpt>
      <trkpt lat="43.37754" lon="2.46131">
        <ele>490.15</ele>
        <time>2019-12-18T07:56:46Z</time>
      </trkpt>
      <trkpt lat="43.37759" lon="2.46135">
        <ele>491.47</ele>
        <time>2019-12-18T07:56:56Z</time>
      </trkpt>
      <trkpt lat="43.37769" lon="2.46147">
        <ele>494.07</ele>
        <time>2019-12-18T07:57:06Z</time>
      </trkpt>
      <trkpt lat="43.37781" lon="2.46155">
        <ele>495.86</ele>
        <time>2019-12-18T07:57:16Z</time>
      </trkpt>
      <trkpt lat="43.37788" lon="2.46152">
        <ele>494.28</ele>
        <time>2019-12-18T07:57:26Z</time>
      </trkpt>
      <trkpt lat="43.37794" lon="2.46152">
        <ele>494.44</ele>
        <time>2019-12-18T07:57:36Z</time>
      </trkpt>
      <trkpt lat="43.37795" lon="2.46151">
        <ele>495.28</ele>
        <time>2019-12-18T07:57:46Z</time>
      </trkpt>
      <trkpt lat="43.37794" lon="2.46151">
        <ele>495.45</ele>
        <time>2019-12-18T07:57:56Z</time>
      </trkpt>
      <trkpt lat="43.37795" lon="2.46151">
        <ele>497.02</ele>
        <time>2019-12-18T07:58:06Z</time>
      </trkpt>
      <trkpt lat="43.37795" lon="2.46151">
        <ele>496.7</ele>
        <time>2019-12-18T07:58:16Z</time>
      </trkpt>
      <trkpt lat="43.37795" lon="2.46151">
        <ele>495.03</ele>
        <time>2019-12-18T07:58:26Z</time>
      </trkpt>
      <trkpt lat="43.37795" lon="2.46152">
        <ele>495.36</ele>
        <time>2019-12-18T07:58:36Z</time>
      </trkpt>
      <trkpt lat="43.37798" lon="2.46159">
        <ele>495.97</ele>
        <time>2019-12-18T07:58:46Z</time>
      </trkpt>
      <trkpt lat="43.37808" lon="2.46164">
        <ele>493.85</ele>
        <time>2019-12-18T07:58:56Z</time>
      </trkpt>
      <trkpt lat="43.37814" lon="2.46167">
        <ele>493.53</ele>
        <time>2019-12-18T07:59:06Z</time>
      </trkpt>
      <trkpt lat="43.37824" lon="2.46172">
        <ele>493.08</ele>
        <time>2019-12-18T07:59:16Z</time>
      </trkpt>
      <trkpt lat="43.37834" lon="2.46184">
        <ele>492.74</ele>
        <time>2019-12-18T07:59:26Z</time>
      </trkpt>
      <trkpt lat="43.37843" lon="2.46193">
        <ele>493.21</ele>
        <time>2019-12-18T07:59:36Z</time>
      </trkpt>
      <trkpt lat="43.37853" lon="2.46198">
        <ele>494.61</ele>
        <time>2019-12-18T07:59:46Z</time>
      </trkpt>
      <trkpt lat="43.37865" lon="2.46203">
        <ele>496.39</ele>
        <time>2019-12-18T07:59:56Z</time>
      </trkpt>
      <trkpt lat="43.37877" lon="2.4621">
        <ele>499.13</ele>
        <time>2019-12-18T08:00:06Z</time>
      </trkpt>
      <trkpt lat="43.37891" lon="2.46216">
        <ele>501.65</ele>
        <time>2019-12-18T08:00:16Z</time>
      </trkpt>
      <trkpt lat="43.37906" lon="2.46222">
        <ele>504.55</ele>
        <time>2019-12-18T08:00:26Z</time>
      </trkpt>
      <trkpt lat="43.37917" lon="2.4623">
        <ele>506.4</ele>
        <time>2019-12-18T08:00:36Z</time>
      </trkpt>
      <trkpt lat="43.37926" lon="2.46243">
        <ele>508.52</ele>
        <time>2019-12-18T08:00:46Z</time>
      </trkpt>
      <trkpt lat="43.37938" lon="2.46249">
        <ele>509.96</ele>
        <time>2019-12-18T08:00:56Z</time>
      </trkpt>
      <trkpt lat="43.3795" lon="2.46254">
        <ele>511.66</ele>
        <time>2019-12-18T08:01:06Z</time>
      </trkpt>
      <trkpt lat="43.37961" lon="2.46258">
        <ele>515.53</ele>
        <time>2019-12-18T08:01:16Z</time>
      </trkpt>
      <trkpt lat="43.3797" lon="2.46258">
        <ele>518.71</ele>
        <time>2019-12-18T08:01:26Z</time>
      </trkpt>
      <trkpt lat="43.37977" lon="2.4626">
        <ele>521.43</ele>
        <time>2019-12-18T08:01:36Z</time>
      </trkpt>
      <trkpt lat="43.37985" lon="2.46262">
        <ele>523.37</ele>
        <time>2019-12-18T08:01:46Z</time>
      </trkpt>
      <trkpt lat="43.37986" lon="2.46264">
        <ele>526.48</ele>
        <time>2019-12-18T08:01:56Z</time>
      </trkpt>
      <trkpt lat="43.37989" lon="2.46264">
        <ele>528.64</ele>
        <time>2019-12-18T08:02:06Z</time>
      </trkpt>
      <trkpt lat="43.37992" lon="2.46268">
        <ele>530.72</ele>
        <time>2019-12-18T08:02:16Z</time>
      </trkpt>
      <trkpt lat="43.37999" lon="2.4627">
        <ele>531.1</ele>
        <time>2019-12-18T08:02:26Z</time>
      </trkpt>
      <trkpt lat="43.3801" lon="2.46268">
        <ele>532.2</ele>
        <time>2019-12-18T08:02:36Z</time>
      </trkpt>
      <trkpt lat="43.38023" lon="2.46267">
        <ele>535.48</ele>
        <time>2019-12-18T08:02:46Z</time>
      </trkpt>
      <trkpt lat="43.38036" lon="2.46266">
        <ele>541.86</ele>
        <time>2019-12-18T08:02:56Z</time>
      </trkpt>
      <trkpt lat="43.38049" lon="2.46265">
        <ele>546.9</ele>
        <time>2019-12-18T08:03:06Z</time>
      </trkpt>
      <trkpt lat="43.38063" lon="2.46267">
        <ele>554.17</ele>
        <time>2019-12-18T08:03:16Z</time>
      </trkpt>
      <trkpt lat="43.38072" lon="2.46262">
        <ele>558.5</ele>
        <time>2019-12-18T08:03:26Z</time>
      </trkpt>
      <trkpt lat="43.38071" lon="2.46249">
        <ele>561.12</ele>
        <time>2019-12-18T08:03:36Z</time>
      </trkpt>
      <trkpt lat="43.38077" lon="2.46237">
        <ele>563.25</ele>
        <time>2019-12-18T08:03:46Z</time>
      </trkpt>
      <trkpt lat="43.38087" lon="2.46235">
        <ele>565.83</ele>
        <time>2019-12-18T08:03:56Z</time>
      </trkpt>
      <trkpt lat="43.381" lon="2.46234">
        <ele>568.48</ele>
        <time>2019-12-18T08:04:06Z</time>
      </trkpt>
      <trkpt lat="43.38112" lon="2.46234">
        <ele>568.42</ele>
        <time>2019-12-18T08:04:16Z</time>
      </trkpt>
      <trkpt lat="43.38123" lon="2.46233">
        <ele>569.76</ele>
        <time>2019-12-18T08:04:26Z</time>
      </trkpt>
      <trkpt lat="43.38134" lon="2.46235">
        <ele>571.03</ele>
        <time>2019-12-18T08:04:36Z</time>
      </trkpt>
      <trkpt lat="43.38144" lon="2.46242">
        <ele>572.74</ele>
        <time>2019-12-18T08:04:46Z</time>
      </trkpt>
      <trkpt lat="43.38154" lon="2.46254">
        <ele>572.97</ele>
        <time>2019-12-18T08:04:56Z</time>
      </trkpt>
      <trkpt lat="43.38161" lon="2.46269">
        <ele>574.54</ele>
        <time>2019-12-18T08:05:06Z</time>
      </trkpt>
      <trkpt lat="43.38165" lon="2.46287">
        <ele>576.29</ele>
        <time>2019-12-18T08:05:16Z</time>
      </trkpt>
      <trkpt lat="43.3817" lon="2.46302">
        <ele>578.99</ele>
        <time>2019-12-18T08:05:26Z</time>
      </trkpt>
      <trkpt lat="43.3818" lon="2.46308">
        <ele>582.37</ele>
        <time>2019-12-18T08:05:36Z</time>
      </trkpt>
      <trkpt lat="43.38188" lon="2.46304">
        <ele>587.33</ele>
        <time>2019-12-18T08:05:46Z</time>
      </trkpt>
      <trkpt lat="43.382" lon="2.46304">
        <ele>589.35</ele>
        <time>2019-12-18T08:05:56Z</time>
      </trkpt>
      <trkpt lat="43.38205" lon="2.46313">
        <ele>591.59</ele>
        <time>2019-12-18T08:06:06Z</time>
      </trkpt>
      <trkpt lat="43.38206" lon="2.46314">
        <ele>593.41</ele>
        <time>2019-12-18T08:06:16Z</time>
      </trkpt>
      <trkpt lat="43.38205" lon="2.46309">
        <ele>594.04</ele>
        <time>2019-12-18T08:06:26Z</time>
      </trkpt>
      <trkpt lat="43.38205" lon="2.46304">
        <ele>593.25</ele>
        <time>2019-12-18T08:06:36Z</time>
      </trkpt>
      <trkpt lat="43.38207" lon="2.463">
        <ele>593.15</ele>
        <time>2019-12-18T08:06:46Z</time>
      </trkpt>
      <trkpt lat="43.38212" lon="2.46307">
        <ele>594.21</ele>
        <time>2019-12-18T08:06:56Z</time>
      </trkpt>
      <trkpt lat="43.3822" lon="2.46322">
        <ele>594.66</ele>
        <time>2019-12-18T08:07:06Z</time>
      </trkpt>
      <trkpt lat="43.38225" lon="2.46326">
        <ele>594.96</ele>
        <time>2019-12-18T08:07:16Z</time>
      </trkpt>
      <trkpt lat="43.38233" lon="2.4633">
        <ele>594.57</ele>
        <time>2019-12-18T08:07:26Z</time>
      </trkpt>
      <trkpt lat="43.38248" lon="2.46332">
        <ele>592.19</ele>
        <time>2019-12-18T08:07:36Z</time>
      </trkpt>
      <trkpt lat="43.38263" lon="2.46338">
        <ele>591.4</ele>
        <time>2019-12-18T08:07:46Z</time>
      </trkpt>
      <trkpt lat="43.38281" lon="2.46343">
        <ele>595.29</ele>
        <time>2019-12-18T08:07:56Z</time>
      </trkpt>
      <trkpt lat="43.383" lon="2.46352">
        <ele>596.14</ele>
        <time>2019-12-18T08:08:06Z</time>
      </trkpt>
      <trkpt lat="43.38319" lon="2.46362">
        <ele>599.66</ele>
        <time>2019-12-18T08:08:16Z</time>
      </trkpt>
      <trkpt lat="43.38339" lon="2.46371">
        <ele>602</ele>
        <time>2019-12-18T08:08:26Z</time>
      </trkpt>
      <trkpt lat="43.38359" lon="2.46381">
        <ele>601.05</ele>
        <time>2019-12-18T08:08:36Z</time>
      </trkpt>
      <trkpt lat="43.38376" lon="2.46391">
        <ele>598.41</ele>
        <time>2019-12-18T08:08:46Z</time>
      </trkpt>
      <trkpt lat="43.38394" lon="2.46404">
        <ele>595.54</ele>
        <time>2019-12-18T08:08:56Z</time>
      </trkpt>
      <trkpt lat="43.38408" lon="2.46423">
        <ele>593.88</ele>
        <time>2019-12-18T08:09:06Z</time>
      </trkpt>
      <trkpt lat="43.3842" lon="2.4644">
        <ele>593.94</ele>
        <time>2019-12-18T08:09:16Z</time>
      </trkpt>
      <trkpt lat="43.38435" lon="2.46472">
        <ele>597.98</ele>
        <time>2019-12-18T08:09:26Z</time>
      </trkpt>
      <trkpt lat="43.38442" lon="2.46507">
        <ele>603.19</ele>
        <time>2019-12-18T08:09:36Z</time>
      </trkpt>
      <trkpt lat="43.38453" lon="2.46523">
        <ele>608.38</ele>
        <time>2019-12-18T08:09:46Z</time>
      </trkpt>
      <trkpt lat="43.38459" lon="2.46536">
        <ele>614.78</ele>
        <time>2019-12-18T08:09:56Z</time>
      </trkpt>
      <trkpt lat="43.38464" lon="2.46547">
        <ele>617.62</ele>
        <time>2019-12-18T08:10:06Z</time>
      </trkpt>
      <trkpt lat="43.38461" lon="2.46548">
        <ele>617.46</ele>
        <time>2019-12-18T08:10:16Z</time>
      </trkpt>
      <trkpt lat="43.38463" lon="2.46551">
        <ele>619.06</ele>
        <time>2019-12-18T08:10:26Z</time>
      </trkpt>
      <trkpt lat="43.38467" lon="2.46553">
        <ele>620.49</ele>
        <time>2019-12-18T08:10:36Z</time>
      </trkpt>
      <trkpt lat="43.3847" lon="2.46555">
        <ele>620.7</ele>
        <time>2019-12-18T08:10:46Z</time>
      </trkpt>
      <trkpt lat="43.38479" lon="2.4656">
        <ele>621.61</ele>
        <time>2019-12-18T08:10:56Z</time>
      </trkpt>
      <trkpt lat="43.38488" lon="2.46563">
        <ele>623.85</ele>
        <time>2019-12-18T08:11:06Z</time>
      </trkpt>
      <trkpt lat="43.385" lon="2.46562">
        <ele>627.93</ele>
        <time>2019-12-18T08:11:16Z</time>
      </trkpt>
      <trkpt lat="43.38512" lon="2.46562">
        <ele>631.63</ele>
        <time>2019-12-18T08:11:26Z</time>
      </trkpt>
      <trkpt lat="43.38522" lon="2.46556">
        <ele>633.66</ele>
        <time>2019-12-18T08:11:36Z</time>
      </trkpt>
      <trkpt lat="43.38536" lon="2.46549">
        <ele>636.12</ele>
        <time>2019-12-18T08:11:46Z</time>
      </trkpt>
      <trkpt lat="43.38553" lon="2.46538">
        <ele>639.1</ele>
        <time>2019-12-18T08:11:56Z</time>
      </trkpt>
      <trkpt lat="43.38561" lon="2.46525">
        <ele>639.91</ele>
        <time>2019-12-18T08:12:06Z</time>
      </trkpt>
      <trkpt lat="43.38569" lon="2.46507">
        <ele>641.84</ele>
        <time>2019-12-18T08:12:16Z</time>
      </trkpt>
      <trkpt lat="43.38576" lon="2.46485">
        <ele>642.54</ele>
        <time>2019-12-18T08:12:26Z</time>
      </trkpt>
      <trkpt lat="43.38583" lon="2.46465">
        <ele>642.07</ele>
        <time>2019-12-18T08:12:36Z</time>
      </trkpt>
      <trkpt lat="43.38592" lon="2.46449">
        <ele>641.31</ele>
        <time>2019-12-18T08:12:46Z</time>
      </trkpt>
      <trkpt lat="43.38607" lon="2.46427">
        <ele>640.78</ele>
        <time>2019-12-18T08:12:56Z</time>
      </trkpt>
      <trkpt lat="43.38618" lon="2.46415">
        <ele>642.39</ele>
        <time>2019-12-18T08:13:06Z</time>
      </trkpt>
      <trkpt lat="43.3862" lon="2.46414">
        <ele>643.58</ele>
        <time>2019-12-18T08:13:16Z</time>
      </trkpt>
      <trkpt lat="43.38628" lon="2.46406">
        <ele>644.34</ele>
        <time>2019-12-18T08:13:26Z</time>
      </trkpt>
      <trkpt lat="43.38639" lon="2.46394">
        <ele>643.98</ele>
        <time>2019-12-18T08:13:36Z</time>
      </trkpt>
      <trkpt lat="43.38649" lon="2.4638">
        <ele>640.53</ele>
        <time>2019-12-18T08:13:46Z</time>
      </trkpt>
      <trkpt lat="43.38662" lon="2.46358">
        <ele>638.96</ele>
        <time>2019-12-18T08:13:56Z</time>
      </trkpt>
      <trkpt lat="43.38674" lon="2.46346">
        <ele>640.52</ele>
        <time>2019-12-18T08:14:06Z</time>
      </trkpt>
      <trkpt lat="43.38689" lon="2.46335">
        <ele>637.5</ele>
        <time>2019-12-18T08:14:16Z</time>
      </trkpt>
      <trkpt lat="43.3871" lon="2.46318">
        <ele>636.27</ele>
        <time>2019-12-18T08:14:26Z</time>
      </trkpt>
      <trkpt lat="43.38728" lon="2.46308">
        <ele>638.14</ele>
        <time>2019-12-18T08:14:36Z</time>
      </trkpt>
      <trkpt lat="43.38747" lon="2.46302">
        <ele>640.69</ele>
        <time>2019-12-18T08:14:46Z</time>
      </trkpt>
      <trkpt lat="43.38765" lon="2.46296">
        <ele>641.49</ele>
        <time>2019-12-18T08:14:56Z</time>
      </trkpt>
      <trkpt lat="43.38782" lon="2.46289">
        <ele>640.44</ele>
        <time>2019-12-18T08:15:06Z</time>
      </trkpt>
      <trkpt lat="43.38796" lon="2.46284">
        <ele>640.25</ele>
        <time>2019-12-18T08:15:16Z</time>
      </trkpt>
      <trkpt lat="43.38813" lon="2.46274">
        <ele>641.31</ele>
        <time>2019-12-18T08:15:26Z</time>
      </trkpt>
      <trkpt lat="43.38825" lon="2.46268">
        <ele>643.49</ele>
        <time>2019-12-18T08:15:36Z</time>
      </trkpt>
      <trkpt lat="43.38839" lon="2.46263">
        <ele>645.92</ele>
        <time>2019-12-18T08:15:46Z</time>
      </trkpt>
      <trkpt lat="43.38851" lon="2.46255">
        <ele>647.82</ele>
        <time>2019-12-18T08:15:56Z</time>
      </trkpt>
      <trkpt lat="43.38865" lon="2.46247">
        <ele>651.2</ele>
        <time>2019-12-18T08:16:06Z</time>
      </trkpt>
      <trkpt lat="43.38877" lon="2.4624">
        <ele>653.82</ele>
        <time>2019-12-18T08:16:16Z</time>
      </trkpt>
      <trkpt lat="43.38889" lon="2.46233">
        <ele>657.67</ele>
        <time>2019-12-18T08:16:26Z</time>
      </trkpt>
      <trkpt lat="43.38903" lon="2.46223">
        <ele>659.26</ele>
        <time>2019-12-18T08:16:36Z</time>
      </trkpt>
      <trkpt lat="43.38915" lon="2.46215">
        <ele>663.24</ele>
        <time>2019-12-18T08:16:46Z</time>
      </trkpt>
      <trkpt lat="43.38916" lon="2.46211">
        <ele>665.79</ele>
        <time>2019-12-18T08:16:56Z</time>
      </trkpt>
      <trkpt lat="43.38918" lon="2.4621">
        <ele>668.29</ele>
        <time>2019-12-18T08:17:06Z</time>
      </trkpt>
      <trkpt lat="43.38916" lon="2.46209">
        <ele>672.07</ele>
        <time>2019-12-18T08:17:16Z</time>
      </trkpt>
      <trkpt lat="43.38915" lon="2.46207">
        <ele>674.43</ele>
        <time>2019-12-18T08:17:26Z</time>
      </trkpt>
      <trkpt lat="43.38916" lon="2.4621">
        <ele>675.01</ele>
        <time>2019-12-18T08:17:36Z</time>
      </trkpt>
      <trkpt lat="43.38913" lon="2.4621">
        <ele>677.15</ele>
        <time>2019-12-18T08:17:46Z</time>
      </trkpt>
      <trkpt lat="43.38914" lon="2.46209">
        <ele>677.67</ele>
        <time>2019-12-18T08:17:56Z</time>
      </trkpt>
      <trkpt lat="43.38925" lon="2.46206">
        <ele>676.8</ele>
        <time>2019-12-18T08:18:06Z</time>
      </trkpt>
      <trkpt lat="43.38941" lon="2.46203">
        <ele>676.32</ele>
        <time>2019-12-18T08:18:16Z</time>
      </trkpt>
      <trkpt lat="43.3896" lon="2.46202">
        <ele>676.8</ele>
        <time>2019-12-18T08:18:26Z</time>
      </trkpt>
      <trkpt lat="43.38981" lon="2.46198">
        <ele>681.55</ele>
        <time>2019-12-18T08:18:36Z</time>
      </trkpt>
      <trkpt lat="43.39003" lon="2.46196">
        <ele>687.31</ele>
        <time>2019-12-18T08:18:46Z</time>
      </trkpt>
      <trkpt lat="43.39024" lon="2.46193">
        <ele>690.38</ele>
        <time>2019-12-18T08:18:56Z</time>
      </trkpt>
      <trkpt lat="43.39044" lon="2.46188">
        <ele>694.24</ele>
        <time>2019-12-18T08:19:06Z</time>
      </trkpt>
      <trkpt lat="43.39063" lon="2.46183">
        <ele>697.82</ele>
        <time>2019-12-18T08:19:16Z</time>
      </trkpt>
      <trkpt lat="43.39078" lon="2.46179">
        <ele>698.89</ele>
        <time>2019-12-18T08:19:26Z</time>
      </trkpt>
      <trkpt lat="43.3909" lon="2.46175">
        <ele>700.94</ele>
        <time>2019-12-18T08:19:36Z</time>
      </trkpt>
      <trkpt lat="43.39101" lon="2.46172">
        <ele>704.75</ele>
        <time>2019-12-18T08:19:46Z</time>
      </trkpt>
      <trkpt lat="43.39112" lon="2.46171">
        <ele>707.34</ele>
        <time>2019-12-18T08:19:56Z</time>
      </trkpt>
      <trkpt lat="43.39126" lon="2.4617">
        <ele>709.4</ele>
        <time>2019-12-18T08:20:06Z</time>
      </trkpt>
      <trkpt lat="43.39142" lon="2.46166">
        <ele>711.67</ele>
        <time>2019-12-18T08:20:16Z</time>
      </trkpt>
      <trkpt lat="43.39158" lon="2.46165">
        <ele>710.7</ele>
        <time>2019-12-18T08:20:26Z</time>
      </trkpt>
      <trkpt lat="43.39176" lon="2.46164">
        <ele>710.06</ele>
        <time>2019-12-18T08:20:36Z</time>
      </trkpt>
      <trkpt lat="43.39183" lon="2.46164">
        <ele>709.69</ele>
        <time>2019-12-18T08:20:40Z</time>
      </trkpt>
      <trkpt lat="43.39197" lon="2.46158">
        <ele>708.05</ele>
        <time>2019-12-18T08:20:50Z</time>
      </trkpt>
      <trkpt lat="43.39202" lon="2.46148">
        <ele>706.52</ele>
        <time>2019-12-18T08:21:00Z</time>
      </trkpt>
      <trkpt lat="43.39212" lon="2.46137">
        <ele>710.77</ele>
        <time>2019-12-18T08:21:10Z</time>
      </trkpt>
      <trkpt lat="43.39224" lon="2.46132">
        <ele>713.28</ele>
        <time>2019-12-18T08:21:20Z</time>
      </trkpt>
      <trkpt lat="43.39229" lon="2.46132">
        <ele>713.65</ele>
        <time>2019-12-18T08:21:30Z</time>
      </trkpt>
      <trkpt lat="43.39231" lon="2.46129">
        <ele>715.47</ele>
        <time>2019-12-18T08:21:40Z</time>
      </trkpt>
      <trkpt lat="43.39242" lon="2.46128">
        <ele>717.33</ele>
        <time>2019-12-18T08:21:50Z</time>
      </trkpt>
      <trkpt lat="43.39252" lon="2.46129">
        <ele>717.08</ele>
        <time>2019-12-18T08:22:00Z</time>
      </trkpt>
      <trkpt lat="43.39264" lon="2.46131">
        <ele>716.88</ele>
        <time>2019-12-18T08:22:10Z</time>
      </trkpt>
      <trkpt lat="43.39281" lon="2.46135">
        <ele>717.62</ele>
        <time>2019-12-18T08:22:20Z</time>
      </trkpt>
      <trkpt lat="43.39303" lon="2.46142">
        <ele>724.11</ele>
        <time>2019-12-18T08:22:30Z</time>
      </trkpt>
      <trkpt lat="43.39314" lon="2.46132">
        <ele>727.22</ele>
        <time>2019-12-18T08:22:40Z</time>
      </trkpt>
      <trkpt lat="43.39324" lon="2.46123">
        <ele>727.81</ele>
        <time>2019-12-18T08:22:50Z</time>
      </trkpt>
      <trkpt lat="43.39337" lon="2.46111">
        <ele>727.27</ele>
        <time>2019-12-18T08:23:00Z</time>
      </trkpt>
      <trkpt lat="43.39353" lon="2.46099">
        <ele>726.2</ele>
        <time>2019-12-18T08:23:10Z</time>
      </trkpt>
      <trkpt lat="43.39363" lon="2.46089">
        <ele>725.81</ele>
        <time>2019-12-18T08:23:20Z</time>
      </trkpt>
      <trkpt lat="43.39376" lon="2.46078">
        <ele>725.24</ele>
        <time>2019-12-18T08:23:30Z</time>
      </trkpt>
      <trkpt lat="43.3939" lon="2.46064">
        <ele>725.4</ele>
        <time>2019-12-18T08:23:40Z</time>
      </trkpt>
      <trkpt lat="43.39403" lon="2.4605">
        <ele>726.95</ele>
        <time>2019-12-18T08:23:50Z</time>
      </trkpt>
      <trkpt lat="43.39417" lon="2.46035">
        <ele>728.38</ele>
        <time>2019-12-18T08:24:00Z</time>
      </trkpt>
      <trkpt lat="43.3943" lon="2.46017">
        <ele>731.5</ele>
        <time>2019-12-18T08:24:10Z</time>
      </trkpt>
      <trkpt lat="43.3944" lon="2.46004">
        <ele>734.26</ele>
        <time>2019-12-18T08:24:20Z</time>
      </trkpt>
      <trkpt lat="43.3945" lon="2.45991">
        <ele>736.65</ele>
        <time>2019-12-18T08:24:30Z</time>
      </trkpt>
      <trkpt lat="43.39458" lon="2.45978">
        <ele>737.37</ele>
        <time>2019-12-18T08:24:40Z</time>
      </trkpt>
      <trkpt lat="43.39466" lon="2.45961">
        <ele>734.9</ele>
        <time>2019-12-18T08:24:50Z</time>
      </trkpt>
      <trkpt lat="43.39473" lon="2.45942">
        <ele>731.61</ele>
        <time>2019-12-18T08:25:00Z</time>
      </trkpt>
      <trkpt lat="43.39478" lon="2.45923">
        <ele>728.81</ele>
        <time>2019-12-18T08:25:10Z</time>
      </trkpt>
      <trkpt lat="43.39486" lon="2.459">
        <ele>725.11</ele>
        <time>2019-12-18T08:25:20Z</time>
      </trkpt>
      <trkpt lat="43.39496" lon="2.4588">
        <ele>723.57</ele>
        <time>2019-12-18T08:25:30Z</time>
      </trkpt>
      <trkpt lat="43.39505" lon="2.45859">
        <ele>720.51</ele>
        <time>2019-12-18T08:25:40Z</time>
      </trkpt>
      <trkpt lat="43.39513" lon="2.45836">
        <ele>715.85</ele>
        <time>2019-12-18T08:25:50Z</time>
      </trkpt>
      <trkpt lat="43.39518" lon="2.4582">
        <ele>713.92</ele>
        <time>2019-12-18T08:26:00Z</time>
      </trkpt>
      <trkpt lat="43.39526" lon="2.45802">
        <ele>712.6</ele>
        <time>2019-12-18T08:26:10Z</time>
      </trkpt>
      <trkpt lat="43.39534" lon="2.45781">
        <ele>711.82</ele>
        <time>2019-12-18T08:26:20Z</time>
      </trkpt>
      <trkpt lat="43.39543" lon="2.4576">
        <ele>712.06</ele>
        <time>2019-12-18T08:26:30Z</time>
      </trkpt>
      <trkpt lat="43.39556" lon="2.45737">
        <ele>714.85</ele>
        <time>2019-12-18T08:26:40Z</time>
      </trkpt>
      <trkpt lat="43.39565" lon="2.45715">
        <ele>715.28</ele>
        <time>2019-12-18T08:26:50Z</time>
      </trkpt>
      <trkpt lat="43.39577" lon="2.45692">
        <ele>714.72</ele>
        <time>2019-12-18T08:27:00Z</time>
      </trkpt>
      <trkpt lat="43.39584" lon="2.45669">
        <ele>714.59</ele>
        <time>2019-12-18T08:27:10Z</time>
      </trkpt>
      <trkpt lat="43.3958" lon="2.45651">
        <ele>714.16</ele>
        <time>2019-12-18T08:27:20Z</time>
      </trkpt>
      <trkpt lat="43.3958" lon="2.45637">
        <ele>714.4</ele>
        <time>2019-12-18T08:27:30Z</time>
      </trkpt>
      <trkpt lat="43.39581" lon="2.45634">
        <ele>716.32</ele>
        <time>2019-12-18T08:27:40Z</time>
      </trkpt>
      <trkpt lat="43.39585" lon="2.45622">
        <ele>720.61</ele>
        <time>2019-12-18T08:27:50Z</time>
      </trkpt>
      <trkpt lat="43.39589" lon="2.45593">
        <ele>721.12</ele>
        <time>2019-12-18T08:28:00Z</time>
      </trkpt>
      <trkpt lat="43.39599" lon="2.45573">
        <ele>721.64</ele>
        <time>2019-12-18T08:28:10Z</time>
      </trkpt>
      <trkpt lat="43.39607" lon="2.45543">
        <ele>724.81</ele>
        <time>2019-12-18T08:28:20Z</time>
      </trkpt>
      <trkpt lat="43.39613" lon="2.4551">
        <ele>727.87</ele>
        <time>2019-12-18T08:28:30Z</time>
      </trkpt>
      <trkpt lat="43.39621" lon="2.45479">
        <ele>729.86</ele>
        <time>2019-12-18T08:28:40Z</time>
      </trkpt>
      <trkpt lat="43.3963" lon="2.45443">
        <ele>734.07</ele>
        <time>2019-12-18T08:28:50Z</time>
      </trkpt>
      <trkpt lat="43.39639" lon="2.45409">
        <ele>737.61</ele>
        <time>2019-12-18T08:29:00Z</time>
      </trkpt>
      <trkpt lat="43.39647" lon="2.45379">
        <ele>737.75</ele>
        <time>2019-12-18T08:29:10Z</time>
      </trkpt>
      <trkpt lat="43.39656" lon="2.4535">
        <ele>745.5</ele>
        <time>2019-12-18T08:29:20Z</time>
      </trkpt>
      <trkpt lat="43.39668" lon="2.45317">
        <ele>747.03</ele>
        <time>2019-12-18T08:29:30Z</time>
      </trkpt>
      <trkpt lat="43.39675" lon="2.4529">
        <ele>746.74</ele>
        <time>2019-12-18T08:29:40Z</time>
      </trkpt>
      <trkpt lat="43.39677" lon="2.45288">
        <ele>747.24</ele>
        <time>2019-12-18T08:29:41Z</time>
      </trkpt>
      <trkpt lat="43.39691" lon="2.45256">
        <ele>753.78</ele>
        <time>2019-12-18T08:29:51Z</time>
      </trkpt>
      <trkpt lat="43.39702" lon="2.45228">
        <ele>756.26</ele>
        <time>2019-12-18T08:30:01Z</time>
      </trkpt>
      <trkpt lat="43.39712" lon="2.45203">
        <ele>754.89</ele>
        <time>2019-12-18T08:30:11Z</time>
      </trkpt>
      <trkpt lat="43.39724" lon="2.45176">
        <ele>751.13</ele>
        <time>2019-12-18T08:30:21Z</time>
      </trkpt>
      <trkpt lat="43.39738" lon="2.45155">
        <ele>748.35</ele>
        <time>2019-12-18T08:30:31Z</time>
      </trkpt>
      <trkpt lat="43.39755" lon="2.45134">
        <ele>750.36</ele>
        <time>2019-12-18T08:30:41Z</time>
      </trkpt>
      <trkpt lat="43.39781" lon="2.45118">
        <ele>766.32</ele>
        <time>2019-12-18T08:30:51Z</time>
      </trkpt>
      <trkpt lat="43.398" lon="2.45126">
        <ele>771.4</ele>
        <time>2019-12-18T08:31:01Z</time>
      </trkpt>
      <trkpt lat="43.39821" lon="2.45141">
        <ele>775.1</ele>
        <time>2019-12-18T08:31:11Z</time>
      </trkpt>
      <trkpt lat="43.39844" lon="2.45154">
        <ele>779.84</ele>
        <time>2019-12-18T08:31:21Z</time>
      </trkpt>
      <trkpt lat="43.39862" lon="2.45164">
        <ele>780.96</ele>
        <time>2019-12-18T08:31:31Z</time>
      </trkpt>
      <trkpt lat="43.39872" lon="2.45173">
        <ele>778.65</ele>
        <time>2019-12-18T08:31:41Z</time>
      </trkpt>
      <trkpt lat="43.39872" lon="2.45173">
        <ele>778.15</ele>
        <time>2019-12-18T08:31:51Z</time>
      </trkpt>
      <trkpt lat="43.39872" lon="2.45174">
        <ele>777.83</ele>
        <time>2019-12-18T08:32:01Z</time>
      </trkpt>
      <trkpt lat="43.39883" lon="2.45191">
        <ele>778.07</ele>
        <time>2019-12-18T08:32:11Z</time>
      </trkpt>
      <trkpt lat="43.39888" lon="2.45206">
        <ele>778.45</ele>
        <time>2019-12-18T08:32:21Z</time>
      </trkpt>
      <trkpt lat="43.399" lon="2.45224">
        <ele>780.42</ele>
        <time>2019-12-18T08:32:31Z</time>
      </trkpt>
      <trkpt lat="43.3991" lon="2.4525">
        <ele>779.26</ele>
        <time>2019-12-18T08:32:41Z</time>
      </trkpt>
      <trkpt lat="43.39923" lon="2.45278">
        <ele>779.98</ele>
        <time>2019-12-18T08:32:51Z</time>
      </trkpt>
      <trkpt lat="43.39939" lon="2.45305">
        <ele>780.86</ele>
        <time>2019-12-18T08:33:01Z</time>
      </trkpt>
      <trkpt lat="43.39956" lon="2.45331">
        <ele>780.41</ele>
        <time>2019-12-18T08:33:11Z</time>
      </trkpt>
      <trkpt lat="43.39975" lon="2.45351">
        <ele>779.11</ele>
        <time>2019-12-18T08:33:21Z</time>
      </trkpt>
      <trkpt lat="43.39989" lon="2.45376">
        <ele>777.47</ele>
        <time>2019-12-18T08:33:31Z</time>
      </trkpt>
      <trkpt lat="43.4" lon="2.45406">
        <ele>776.58</ele>
        <time>2019-12-18T08:33:41Z</time>
      </trkpt>
      <trkpt lat="43.40011" lon="2.45438">
        <ele>776.38</ele>
        <time>2019-12-18T08:33:51Z</time>
      </trkpt>
      <trkpt lat="43.40022" lon="2.45471">
        <ele>779.16</ele>
        <time>2019-12-18T08:34:01Z</time>
      </trkpt>
      <trkpt lat="43.40032" lon="2.45504">
        <ele>778.94</ele>
        <time>2019-12-18T08:34:11Z</time>
      </trkpt>
      <trkpt lat="43.40043" lon="2.45531">
        <ele>777.58</ele>
        <time>2019-12-18T08:34:21Z</time>
      </trkpt>
      <trkpt lat="43.40055" lon="2.45563">
        <ele>774.96</ele>
        <time>2019-12-18T08:34:31Z</time>
      </trkpt>
      <trkpt lat="43.40062" lon="2.45596">
        <ele>775.38</ele>
        <time>2019-12-18T08:34:41Z</time>
      </trkpt>
      <trkpt lat="43.40067" lon="2.45632">
        <ele>771.92</ele>
        <time>2019-12-18T08:34:51Z</time>
      </trkpt>
      <trkpt lat="43.40074" lon="2.45666">
        <ele>767.74</ele>
        <time>2019-12-18T08:35:01Z</time>
      </trkpt>
      <trkpt lat="43.40079" lon="2.45698">
        <ele>766.8</ele>
        <time>2019-12-18T08:35:11Z</time>
      </trkpt>
      <trkpt lat="43.40079" lon="2.45706">
        <ele>766.81</ele>
        <time>2019-12-18T08:35:21Z</time>
      </trkpt>
      <trkpt lat="43.4008" lon="2.45715">
        <ele>765.76</ele>
        <time>2019-12-18T08:35:31Z</time>
      </trkpt>
      <trkpt lat="43.4008" lon="2.45726">
        <ele>765.07</ele>
        <time>2019-12-18T08:35:41Z</time>
      </trkpt>
      <trkpt lat="43.40084" lon="2.4574">
        <ele>764.02</ele>
        <time>2019-12-18T08:35:51Z</time>
      </trkpt>
      <trkpt lat="43.40094" lon="2.45773">
        <ele>763.44</ele>
        <time>2019-12-18T08:36:01Z</time>
      </trkpt>
      <trkpt lat="43.40096" lon="2.45807">
        <ele>763.01</ele>
        <time>2019-12-18T08:36:11Z</time>
      </trkpt>
      <trkpt lat="43.40098" lon="2.4584">
        <ele>762.47</ele>
        <time>2019-12-18T08:36:21Z</time>
      </trkpt>
      <trkpt lat="43.40094" lon="2.45875">
        <ele>760.89</ele>
        <time>2019-12-18T08:36:31Z</time>
      </trkpt>
      <trkpt lat="43.40092" lon="2.45907">
        <ele>759.09</ele>
        <time>2019-12-18T08:36:41Z</time>
      </trkpt>
      <trkpt lat="43.40095" lon="2.45937">
        <ele>757.12</ele>
        <time>2019-12-18T08:36:51Z</time>
      </trkpt>
      <trkpt lat="43.40095" lon="2.4594">
        <ele>756.71</ele>
        <time>2019-12-18T08:36:52Z</time>
      </trkpt>
      <trkpt lat="43.401" lon="2.45974">
        <ele>750.51</ele>
        <time>2019-12-18T08:37:03Z</time>
      </trkpt>
      <trkpt lat="43.401" lon="2.46006">
        <ele>742.36</ele>
        <time>2019-12-18T08:37:13Z</time>
      </trkpt>
      <trkpt lat="43.40102" lon="2.46025">
        <ele>734.41</ele>
        <time>2019-12-18T08:37:23Z</time>
      </trkpt>
      <trkpt lat="43.40107" lon="2.46046">
        <ele>731.24</ele>
        <time>2019-12-18T08:37:33Z</time>
      </trkpt>
      <trkpt lat="43.40119" lon="2.46077">
        <ele>725.75</ele>
        <time>2019-12-18T08:37:43Z</time>
      </trkpt>
      <trkpt lat="43.4012" lon="2.46111">
        <ele>719.27</ele>
        <time>2019-12-18T08:37:53Z</time>
      </trkpt>
      <trkpt lat="43.40125" lon="2.46142">
        <ele>713.8</ele>
        <time>2019-12-18T08:38:03Z</time>
      </trkpt>
      <trkpt lat="43.40129" lon="2.46171">
        <ele>707.95</ele>
        <time>2019-12-18T08:38:13Z</time>
      </trkpt>
      <trkpt lat="43.40134" lon="2.46204">
        <ele>703.23</ele>
        <time>2019-12-18T08:38:23Z</time>
      </trkpt>
      <trkpt lat="43.40129" lon="2.46229">
        <ele>698.96</ele>
        <time>2019-12-18T08:38:33Z</time>
      </trkpt>
      <trkpt lat="43.40115" lon="2.46234">
        <ele>699.24</ele>
        <time>2019-12-18T08:38:43Z</time>
      </trkpt>
      <trkpt lat="43.40094" lon="2.46231">
        <ele>696.45</ele>
        <time>2019-12-18T08:38:53Z</time>
      </trkpt>
      <trkpt lat="43.4008" lon="2.46224">
        <ele>695.75</ele>
        <time>2019-12-18T08:39:03Z</time>
      </trkpt>
      <trkpt lat="43.40077" lon="2.4622">
        <ele>697.23</ele>
        <time>2019-12-18T08:39:13Z</time>
      </trkpt>
      <trkpt lat="43.40076" lon="2.46229">
        <ele>697.87</ele>
        <time>2019-12-18T08:39:23Z</time>
      </trkpt>
      <trkpt lat="43.40073" lon="2.46249">
        <ele>698.33</ele>
        <time>2019-12-18T08:39:33Z</time>
      </trkpt>
      <trkpt lat="43.40084" lon="2.4629">
        <ele>716.6875</ele>
      </trkpt>
      <trkpt lat="43.40091" lon="2.463">
        <ele>715.4921875</ele>
      </trkpt>
      <trkpt lat="43.40097" lon="2.4631">
        <ele>713.484375</ele>
      </trkpt>
      <trkpt lat="43.40135" lon="2.46349">
        <ele>708.51953125</ele>
      </trkpt>
      <trkpt lat="43.40152" lon="2.46356">
        <ele>708.47265625</ele>
      </trkpt>
      <trkpt lat="43.4016" lon="2.46364">
        <ele>707.36328125</ele>
      </trkpt>
      <trkpt lat="43.40168" lon="2.46373">
        <ele>705.8515625</ele>
      </trkpt>
      <trkpt lat="43.40175" lon="2.46381">
        <ele>704.41796875</ele>
      </trkpt>
      <trkpt lat="43.40183" lon="2.46389">
        <ele>703.55078125</ele>
      </trkpt>
      <trkpt lat="43.4019" lon="2.46399">
        <ele>701.9453125</ele>
      </trkpt>
      <trkpt lat="43.40197" lon="2.46408">
        <ele>700.796875</ele>
      </trkpt>
      <trkpt lat="43.40204" lon="2.46418">
        <ele>699.49609375</ele>
      </trkpt>
      <trkpt lat="43.4021" lon="2.46429">
        <ele>697.6328125</ele>
      </trkpt>
      <trkpt lat="43.40217" lon="2.46436">
        <ele>697.03125</ele>
      </trkpt>
      <trkpt lat="43.40224" lon="2.46446">
        <ele>695.86328125</ele>
      </trkpt>
      <trkpt lat="43.4023" lon="2.46456">
        <ele>694.58203125</ele>
      </trkpt>
      <trkpt lat="43.40237" lon="2.46466">
        <ele>693.51953125</ele>
      </trkpt>
      <trkpt lat="43.40242" lon="2.46476">
        <ele>692.51171875</ele>
      </trkpt>
      <trkpt lat="43.40244" lon="2.46489">
        <ele>690.375</ele>
      </trkpt>
      <trkpt lat="43.40248" lon="2.46501">
        <ele>688.46875</ele>
      </trkpt>
      <trkpt lat="43.40249" lon="2.46514">
        <ele>686.0625</ele>
      </trkpt>
      <trkpt lat="43.40252" lon="2.46526">
        <ele>683.66796875</ele>
      </trkpt>
      <trkpt lat="43.4026" lon="2.46535">
        <ele>682.58203125</ele>
      </trkpt>
      <trkpt lat="43.40268" lon="2.46541">
        <ele>682.0078125</ele>
      </trkpt>
      <trkpt lat="43.40277" lon="2.46544">
        <ele>682.33984375</ele>
      </trkpt>
      <trkpt lat="43.40286" lon="2.46545">
        <ele>682.9453125</ele>
      </trkpt>
      <trkpt lat="43.40295" lon="2.46546">
        <ele>683.5390625</ele>
      </trkpt>
      <trkpt lat="43.40304" lon="2.46546">
        <ele>683.66015625</ele>
      </trkpt>
      <trkpt lat="43.40313" lon="2.46548">
        <ele>682.55859375</ele>
      </trkpt>
      <trkpt lat="43.40316" lon="2.46543">
        <ele>683.66796875</ele>
      </trkpt>
      <trkpt lat="43.40326" lon="2.46546">
        <ele>681.80859375</ele>
      </trkpt>
      <trkpt lat="43.40334" lon="2.46553">
        <ele>679.17578125</ele>
      </trkpt>
      <trkpt lat="43.40346" lon="2.46555">
        <ele>677.0703125</ele>
      </trkpt>
      <trkpt lat="43.40355" lon="2.46556">
        <ele>675.671875</ele>
      </trkpt>
      <trkpt lat="43.40364" lon="2.46558">
        <ele>673.85546875</ele>
      </trkpt>
      <trkpt lat="43.40374" lon="2.46558">
        <ele>672.34765625</ele>
      </trkpt>
      <trkpt lat="43.40384" lon="2.46558">
        <ele>670.83984375</ele>
      </trkpt>
      <trkpt lat="43.40393" lon="2.46563">
        <ele>667.54296875</ele>
      </trkpt>
      <trkpt lat="43.404" lon="2.4657">
        <ele>663.50390625</ele>
      </trkpt>
      <trkpt lat="43.40409" lon="2.46584">
        <ele>655.84765625</ele>
      </trkpt>
      <trkpt lat="43.40416" lon="2.46593">
        <ele>651.765625</ele>
      </trkpt>
      <trkpt lat="43.40423" lon="2.46601">
        <ele>648.30859375</ele>
      </trkpt>
      <trkpt lat="43.40431" lon="2.46608">
        <ele>646.17578125</ele>
      </trkpt>
      <trkpt lat="43.4044" lon="2.46615">
        <ele>643.58984375</ele>
      </trkpt>
      <trkpt lat="43.40447" lon="2.46624">
        <ele>640.48828125</ele>
      </trkpt>
      <trkpt lat="43.40454" lon="2.46632">
        <ele>638.8359375</ele>
      </trkpt>
      <trkpt lat="43.40459" lon="2.46642">
        <ele>637.91796875</ele>
      </trkpt>
      <trkpt lat="43.40458" lon="2.46655">
        <ele>635.875</ele>
      </trkpt>
      <trkpt lat="43.4045" lon="2.46662">
        <ele>633.47265625</ele>
      </trkpt>
      <trkpt lat="43.40443" lon="2.46671">
        <ele>630.84375</ele>
      </trkpt>
      <trkpt lat="43.40436" lon="2.4668">
        <ele>628.0546875</ele>
      </trkpt>
      <trkpt lat="43.40429" lon="2.4669">
        <ele>627.46875</ele>
      </trkpt>
      <trkpt lat="43.40422" lon="2.467">
        <ele>627.6171875</ele>
      </trkpt>
      <trkpt lat="43.40414" lon="2.4671">
        <ele>627.296875</ele>
      </trkpt>
      <trkpt lat="43.40409" lon="2.46721">
        <ele>627.51953125</ele>
      </trkpt>
      <trkpt lat="43.40402" lon="2.46731">
        <ele>627.171875</ele>
      </trkpt>
      <trkpt lat="43.40395" lon="2.46745">
        <ele>626.6953125</ele>
      </trkpt>
      <trkpt lat="43.4039" lon="2.46756">
        <ele>626.08203125</ele>
      </trkpt>
      <trkpt lat="43.40386" lon="2.46771">
        <ele>625.62109375</ele>
      </trkpt>
      <trkpt lat="43.40381" lon="2.46785">
        <ele>624.66015625</ele>
      </trkpt>
      <trkpt lat="43.4038" lon="2.46797">
        <ele>625.05859375</ele>
      </trkpt>
      <trkpt lat="43.40376" lon="2.46809">
        <ele>624.26953125</ele>
      </trkpt>
      <trkpt lat="43.4037" lon="2.4682">
        <ele>623.0078125</ele>
      </trkpt>
      <trkpt lat="43.40363" lon="2.46829">
        <ele>620.6171875</ele>
      </trkpt>
      <trkpt lat="43.40358" lon="2.46839">
        <ele>619.078125</ele>
      </trkpt>
      <trkpt lat="43.40352" lon="2.4685">
        <ele>617.6640625</ele>
      </trkpt>
      <trkpt lat="43.40347" lon="2.46861">
        <ele>617.16796875</ele>
      </trkpt>
      <trkpt lat="43.40342" lon="2.46874">
        <ele>617.1875</ele>
      </trkpt>
      <trkpt lat="43.40339" lon="2.46889">
        <ele>617.9453125</ele>
      </trkpt>
      <trkpt lat="43.40337" lon="2.46901">
        <ele>619.09375</ele>
      </trkpt>
      <trkpt lat="43.40334" lon="2.46914">
        <ele>620.4921875</ele>
      </trkpt>
      <trkpt lat="43.40331" lon="2.46926">
        <ele>623.03515625</ele>
      </trkpt>
      <trkpt lat="43.40327" lon="2.46939">
        <ele>625.34375</ele>
      </trkpt>
      <trkpt lat="43.40317" lon="2.4696">
        <ele>600.54</ele>
        <time>2019-12-18T08:47:45Z</time>
      </trkpt>
      <trkpt lat="43.40312" lon="2.46966">
        <ele>603.4</ele>
        <time>2019-12-18T08:47:55Z</time>
      </trkpt>
      <trkpt lat="43.40304" lon="2.46969">
        <ele>606.12</ele>
        <time>2019-12-18T08:48:05Z</time>
      </trkpt>
      <trkpt lat="43.40293" lon="2.46977">
        <ele>609.83</ele>
        <time>2019-12-18T08:48:15Z</time>
      </trkpt>
      <trkpt lat="43.40277" lon="2.46984">
        <ele>611.68</ele>
        <time>2019-12-18T08:48:25Z</time>
      </trkpt>
      <trkpt lat="43.4025" lon="2.46981">
        <ele>609.76</ele>
        <time>2019-12-18T08:48:35Z</time>
      </trkpt>
      <trkpt lat="43.40224" lon="2.46978">
        <ele>607.82</ele>
        <time>2019-12-18T08:48:45Z</time>
      </trkpt>
      <trkpt lat="43.40199" lon="2.46979">
        <ele>608.02</ele>
        <time>2019-12-18T08:48:55Z</time>
      </trkpt>
      <trkpt lat="43.40174" lon="2.46984">
        <ele>608.35</ele>
        <time>2019-12-18T08:49:05Z</time>
      </trkpt>
      <trkpt lat="43.4015" lon="2.46989">
        <ele>611.26</ele>
        <time>2019-12-18T08:49:15Z</time>
      </trkpt>
      <trkpt lat="43.40127" lon="2.46995">
        <ele>612.63</ele>
        <time>2019-12-18T08:49:25Z</time>
      </trkpt>
      <trkpt lat="43.40108" lon="2.47">
        <ele>614.73</ele>
        <time>2019-12-18T08:49:35Z</time>
      </trkpt>
      <trkpt lat="43.40093" lon="2.47008">
        <ele>616.14</ele>
        <time>2019-12-18T08:49:45Z</time>
      </trkpt>
      <trkpt lat="43.40076" lon="2.47013">
        <ele>617.36</ele>
        <time>2019-12-18T08:49:55Z</time>
      </trkpt>
      <trkpt lat="43.40063" lon="2.47022">
        <ele>619.64</ele>
        <time>2019-12-18T08:50:05Z</time>
      </trkpt>
      <trkpt lat="43.40047" lon="2.47022">
        <ele>625.66</ele>
        <time>2019-12-18T08:50:15Z</time>
      </trkpt>
      <trkpt lat="43.40036" lon="2.47024">
        <ele>631.4</ele>
        <time>2019-12-18T08:50:25Z</time>
      </trkpt>
      <trkpt lat="43.40029" lon="2.47026">
        <ele>631.61</ele>
        <time>2019-12-18T08:50:35Z</time>
      </trkpt>
      <trkpt lat="43.40021" lon="2.47029">
        <ele>632.04</ele>
        <time>2019-12-18T08:50:45Z</time>
      </trkpt>
      <trkpt lat="43.40008" lon="2.47043">
        <ele>630.36</ele>
        <time>2019-12-18T08:50:55Z</time>
      </trkpt>
      <trkpt lat="43.39996" lon="2.47063">
        <ele>624.91</ele>
        <time>2019-12-18T08:51:05Z</time>
      </trkpt>
      <trkpt lat="43.39975" lon="2.47096">
        <ele>618.36</ele>
        <time>2019-12-18T08:51:15Z</time>
      </trkpt>
      <trkpt lat="43.39956" lon="2.47127">
        <ele>616</ele>
        <time>2019-12-18T08:51:25Z</time>
      </trkpt>
      <trkpt lat="43.39942" lon="2.47157">
        <ele>613.35</ele>
        <time>2019-12-18T08:51:35Z</time>
      </trkpt>
      <trkpt lat="43.39934" lon="2.47182">
        <ele>612.67</ele>
        <time>2019-12-18T08:51:45Z</time>
      </trkpt>
      <trkpt lat="43.39933" lon="2.47218">
        <ele>615.41</ele>
        <time>2019-12-18T08:51:55Z</time>
      </trkpt>
      <trkpt lat="43.39935" lon="2.47253">
        <ele>614.75</ele>
        <time>2019-12-18T08:52:05Z</time>
      </trkpt>
      <trkpt lat="43.39939" lon="2.47288">
        <ele>613.78</ele>
        <time>2019-12-18T08:52:15Z</time>
      </trkpt>
      <trkpt lat="43.39944" lon="2.47324">
        <ele>613.39</ele>
        <time>2019-12-18T08:52:25Z</time>
      </trkpt>
      <trkpt lat="43.3995" lon="2.47358">
        <ele>613.82</ele>
        <time>2019-12-18T08:52:35Z</time>
      </trkpt>
      <trkpt lat="43.39956" lon="2.47376">
        <ele>613.83</ele>
        <time>2019-12-18T08:52:41Z</time>
      </trkpt>
      <trkpt lat="43.39968" lon="2.47402">
        <ele>609.63</ele>
        <time>2019-12-18T08:52:51Z</time>
      </trkpt>
      <trkpt lat="43.39981" lon="2.47433">
        <ele>599.55</ele>
        <time>2019-12-18T08:53:01Z</time>
      </trkpt>
      <trkpt lat="43.39995" lon="2.47456">
        <ele>590.27</ele>
        <time>2019-12-18T08:53:11Z</time>
      </trkpt>
      <trkpt lat="43.3999" lon="2.47469">
        <ele>592.83</ele>
        <time>2019-12-18T08:53:21Z</time>
      </trkpt>
      <trkpt lat="43.39992" lon="2.47479">
        <ele>593.61</ele>
        <time>2019-12-18T08:53:31Z</time>
      </trkpt>
      <trkpt lat="43.40004" lon="2.47491">
        <ele>593.99</ele>
        <time>2019-12-18T08:53:41Z</time>
      </trkpt>
      <trkpt lat="43.40014" lon="2.47511">
        <ele>593.43</ele>
        <time>2019-12-18T08:53:51Z</time>
      </trkpt>
      <trkpt lat="43.40016" lon="2.47535">
        <ele>596.34</ele>
        <time>2019-12-18T08:54:01Z</time>
      </trkpt>
      <trkpt lat="43.40013" lon="2.47553">
        <ele>598.61</ele>
        <time>2019-12-18T08:54:11Z</time>
      </trkpt>
      <trkpt lat="43.40011" lon="2.4757">
        <ele>598.66</ele>
        <time>2019-12-18T08:54:21Z</time>
      </trkpt>
      <trkpt lat="43.40009" lon="2.47588">
        <ele>598.49</ele>
        <time>2019-12-18T08:54:31Z</time>
      </trkpt>
      <trkpt lat="43.40007" lon="2.4761">
        <ele>596.61</ele>
        <time>2019-12-18T08:54:41Z</time>
      </trkpt>
      <trkpt lat="43.40007" lon="2.4764">
        <ele>595.93</ele>
        <time>2019-12-18T08:54:51Z</time>
      </trkpt>
      <trkpt lat="43.4001" lon="2.47676">
        <ele>601.94</ele>
        <time>2019-12-18T08:55:01Z</time>
      </trkpt>
      <trkpt lat="43.40069" lon="2.47861">
        <ele>611.640625</ele>
      </trkpt>
      <trkpt lat="43.40069" lon="2.47875">
        <ele>609.53515625</ele>
      </trkpt>
      <trkpt lat="43.40066" lon="2.47887">
        <ele>606.79296875</ele>
      </trkpt>
      <trkpt lat="43.40057" lon="2.47888">
        <ele>603.828125</ele>
      </trkpt>
      <trkpt lat="43.4005" lon="2.47881">
        <ele>602.89453125</ele>
      </trkpt>
      <trkpt lat="43.40042" lon="2.47872">
        <ele>602.29296875</ele>
      </trkpt>
      <trkpt lat="43.40033" lon="2.47867">
        <ele>600.59765625</ele>
      </trkpt>
      <trkpt lat="43.40024" lon="2.47862">
        <ele>598.98828125</ele>
      </trkpt>
      <trkpt lat="43.40019" lon="2.47851">
        <ele>599.09375</ele>
      </trkpt>
      <trkpt lat="43.40014" lon="2.4784">
        <ele>597.96484375</ele>
      </trkpt>
      <trkpt lat="43.40007" lon="2.4783">
        <ele>596.1015625</ele>
      </trkpt>
      <trkpt lat="43.40001" lon="2.4782">
        <ele>594.23828125</ele>
      </trkpt>
      <trkpt lat="43.39996" lon="2.47809">
        <ele>592.9296875</ele>
      </trkpt>
      <trkpt lat="43.39992" lon="2.47796">
        <ele>592.59375</ele>
      </trkpt>
      <trkpt lat="43.3999" lon="2.47784">
        <ele>593.0546875</ele>
      </trkpt>
      <trkpt lat="43.39987" lon="2.47771">
        <ele>592.73828125</ele>
      </trkpt>
      <trkpt lat="43.39983" lon="2.47759">
        <ele>592.5078125</ele>
      </trkpt>
      <trkpt lat="43.3998" lon="2.47746">
        <ele>592.37109375</ele>
      </trkpt>
      <trkpt lat="43.39973" lon="2.47736">
        <ele>590.76171875</ele>
      </trkpt>
      <trkpt lat="43.39966" lon="2.47727">
        <ele>588.0859375</ele>
      </trkpt>
      <trkpt lat="43.39959" lon="2.4772">
        <ele>585.24609375</ele>
      </trkpt>
      <trkpt lat="43.39951" lon="2.47714">
        <ele>581.8828125</ele>
      </trkpt>
      <trkpt lat="43.39944" lon="2.47705">
        <ele>578.8515625</ele>
      </trkpt>
      <trkpt lat="43.39935" lon="2.47701">
        <ele>574.859375</ele>
      </trkpt>
      <trkpt lat="43.39925" lon="2.47701">
        <ele>570.41015625</ele>
      </trkpt>
      <trkpt lat="43.39916" lon="2.47702">
        <ele>566.38671875</ele>
      </trkpt>
      <trkpt lat="43.39907" lon="2.47705">
        <ele>562.41015625</ele>
      </trkpt>
      <trkpt lat="43.39898" lon="2.47707">
        <ele>558.4765625</ele>
      </trkpt>
      <trkpt lat="43.3989" lon="2.47714">
        <ele>555.125</ele>
      </trkpt>
      <trkpt lat="43.39882" lon="2.4772">
        <ele>551.87890625</ele>
      </trkpt>
      <trkpt lat="43.39874" lon="2.47729">
        <ele>548.86328125</ele>
      </trkpt>
      <trkpt lat="43.39865" lon="2.47731">
        <ele>545.22265625</ele>
      </trkpt>
      <trkpt lat="43.39857" lon="2.47725">
        <ele>541.37109375</ele>
      </trkpt>
      <trkpt lat="43.39848" lon="2.47717">
        <ele>537.16015625</ele>
      </trkpt>
      <trkpt lat="43.39839" lon="2.47712">
        <ele>532.66796875</ele>
      </trkpt>
      <trkpt lat="43.3983" lon="2.4771">
        <ele>528.34765625</ele>
      </trkpt>
      <trkpt lat="43.39821" lon="2.4771">
        <ele>523.80859375</ele>
      </trkpt>
      <trkpt lat="43.39811" lon="2.4771">
        <ele>519.26953125</ele>
      </trkpt>
      <trkpt lat="43.39801" lon="2.4771">
        <ele>514.73046875</ele>
      </trkpt>
      <trkpt lat="43.39791" lon="2.4771">
        <ele>510.53125</ele>
      </trkpt>
      <trkpt lat="43.39781" lon="2.4771">
        <ele>506.359375</ele>
      </trkpt>
      <trkpt lat="43.39781" lon="2.47697">
        <ele>505.62109375</ele>
      </trkpt>
      <trkpt lat="43.39781" lon="2.47684">
        <ele>504.8125</ele>
      </trkpt>
      <trkpt lat="43.39781" lon="2.47671">
        <ele>507.82421875</ele>
      </trkpt>
      <trkpt lat="43.39774" lon="2.47664">
        <ele>507.3984375</ele>
      </trkpt>
      <trkpt lat="43.39766" lon="2.4767">
        <ele>502.7578125</ele>
      </trkpt>
      <trkpt lat="43.39757" lon="2.47675">
        <ele>497.984375</ele>
      </trkpt>
      <trkpt lat="43.39751" lon="2.47685">
        <ele>493.21484375</ele>
      </trkpt>
      <trkpt lat="43.39745" lon="2.47695">
        <ele>491.16015625</ele>
      </trkpt>
      <trkpt lat="43.3974" lon="2.47705">
        <ele>489.43359375</ele>
      </trkpt>
      <trkpt lat="43.39735" lon="2.47716">
        <ele>487.8203125</ele>
      </trkpt>
      <trkpt lat="43.3973" lon="2.47727">
        <ele>485.68359375</ele>
      </trkpt>
      <trkpt lat="43.39726" lon="2.4774">
        <ele>484.08203125</ele>
      </trkpt>
      <trkpt lat="43.39722" lon="2.47752">
        <ele>482.89453125</ele>
      </trkpt>
      <trkpt lat="43.39719" lon="2.47765">
        <ele>482.453125</ele>
      </trkpt>
      <trkpt lat="43.39716" lon="2.47777">
        <ele>482.0703125</ele>
      </trkpt>
      <trkpt lat="43.39719" lon="2.4779">
        <ele>483.52734375</ele>
      </trkpt>
      <trkpt lat="43.39727" lon="2.47796">
        <ele>485.8515625</ele>
      </trkpt>
      <trkpt lat="43.39736" lon="2.47799">
        <ele>488.17578125</ele>
      </trkpt>
      <trkpt lat="43.39745" lon="2.47804">
        <ele>489.79296875</ele>
      </trkpt>
      <trkpt lat="43.39754" lon="2.4781">
        <ele>491.43359375</ele>
      </trkpt>
      <trkpt lat="43.39761" lon="2.47819">
        <ele>491.59765625</ele>
      </trkpt>
      <trkpt lat="43.39768" lon="2.47828">
        <ele>490.88671875</ele>
      </trkpt>
      <trkpt lat="43.39772" lon="2.4784">
        <ele>489.046875</ele>
      </trkpt>
      <trkpt lat="43.39776" lon="2.47852">
        <ele>486.65625</ele>
      </trkpt>
      <trkpt lat="43.39776" lon="2.47865">
        <ele>483.95703125</ele>
      </trkpt>
      <trkpt lat="43.39771" lon="2.47876">
        <ele>480.31640625</ele>
      </trkpt>
      <trkpt lat="43.39766" lon="2.47886">
        <ele>476.69921875</ele>
      </trkpt>
      <trkpt lat="43.3976" lon="2.47896">
        <ele>473.08203125</ele>
      </trkpt>
      <trkpt lat="43.39752" lon="2.47902">
        <ele>469.546875</ele>
      </trkpt>
      <trkpt lat="43.39745" lon="2.47911">
        <ele>467.91015625</ele>
      </trkpt>
      <trkpt lat="43.39736" lon="2.47907">
        <ele>466.7578125</ele>
      </trkpt>
      <trkpt lat="43.39737" lon="2.4792">
        <ele>468.55078125</ele>
      </trkpt>
      <trkpt lat="43.39729" lon="2.47927">
        <ele>469.3046875</ele>
      </trkpt>
      <trkpt lat="43.39725" lon="2.4794">
        <ele>471.14453125</ele>
      </trkpt>
      <trkpt lat="43.39726" lon="2.47952">
        <ele>473.10546875</ele>
      </trkpt>
      <trkpt lat="43.39725" lon="2.47965">
        <ele>475.44921875</ele>
      </trkpt>
      <trkpt lat="43.39719" lon="2.47975">
        <ele>478.1953125</ele>
      </trkpt>
      <trkpt lat="43.39722" lon="2.47991">
        <ele>482.04296875</ele>
      </trkpt>
      <trkpt lat="43.39722" lon="2.48005">
        <ele>485.44140625</ele>
      </trkpt>
      <trkpt lat="43.39715" lon="2.48013">
        <ele>488.8515625</ele>
      </trkpt>
      <trkpt lat="43.39709" lon="2.48025">
        <ele>492.88671875</ele>
      </trkpt>
      <trkpt lat="43.39707" lon="2.48037">
        <ele>496.69140625</ele>
      </trkpt>
      <trkpt lat="43.39699" lon="2.48031">
        <ele>496.62109375</ele>
      </trkpt>
      <trkpt lat="43.39692" lon="2.48023">
        <ele>495.8359375</ele>
      </trkpt>
      <trkpt lat="43.39683" lon="2.48022">
        <ele>496.51953125</ele>
      </trkpt>
      <trkpt lat="43.39674" lon="2.48022">
        <ele>497.26171875</ele>
      </trkpt>
      <trkpt lat="43.39665" lon="2.48023">
        <ele>498.4375</ele>
      </trkpt>
      <trkpt lat="43.39656" lon="2.4802">
        <ele>497.8515625</ele>
      </trkpt>
      <trkpt lat="43.39647" lon="2.48018">
        <ele>498.08984375</ele>
      </trkpt>
      <trkpt lat="43.39638" lon="2.48017">
        <ele>498.29296875</ele>
      </trkpt>
      <trkpt lat="43.39629" lon="2.48016">
        <ele>498.453125</ele>
      </trkpt>
      <trkpt lat="43.3962" lon="2.48015">
        <ele>498.6015625</ele>
      </trkpt>
      <trkpt lat="43.39611" lon="2.48013">
        <ele>498.79296875</ele>
      </trkpt>
      <trkpt lat="43.39617" lon="2.4801">
        <ele>496.828125</ele>
      </trkpt>
      <trkpt lat="43.39609" lon="2.48008">
        <ele>497.125</ele>
      </trkpt>
      <trkpt lat="43.396" lon="2.48011">
        <ele>498.8046875</ele>
      </trkpt>
      <trkpt lat="43.39591" lon="2.48018">
        <ele>502.08984375</ele>
      </trkpt>
      <trkpt lat="43.39582" lon="2.48025">
        <ele>504.98828125</ele>
      </trkpt>
      <trkpt lat="43.39573" lon="2.4803">
        <ele>508.5625</ele>
      </trkpt>
      <trkpt lat="43.39564" lon="2.48031">
        <ele>511.8046875</ele>
      </trkpt>
      <trkpt lat="43.39555" lon="2.48031">
        <ele>514.90234375</ele>
      </trkpt>
      <trkpt lat="43.39546" lon="2.4803">
        <ele>517.4375</ele>
      </trkpt>
      <trkpt lat="43.39537" lon="2.48027">
        <ele>519.83984375</ele>
      </trkpt>
      <trkpt lat="43.39533" lon="2.48023">
        <ele>495.6</ele>
        <time>2019-12-18T09:13:26Z</time>
      </trkpt>
      <trkpt lat="43.39531" lon="2.48">
        <ele>500.08</ele>
        <time>2019-12-18T09:13:36Z</time>
      </trkpt>
      <trkpt lat="43.39528" lon="2.47971">
        <ele>503.72</ele>
        <time>2019-12-18T09:13:46Z</time>
      </trkpt>
      <trkpt lat="43.39519" lon="2.4794">
        <ele>507.55</ele>
        <time>2019-12-18T09:13:56Z</time>
      </trkpt>
      <trkpt lat="43.39515" lon="2.47915">
        <ele>514.68</ele>
        <time>2019-12-18T09:14:06Z</time>
      </trkpt>
      <trkpt lat="43.3951" lon="2.47895">
        <ele>517.54</ele>
        <time>2019-12-18T09:14:16Z</time>
      </trkpt>
      <trkpt lat="43.39508" lon="2.4787">
        <ele>521.15</ele>
        <time>2019-12-18T09:14:26Z</time>
      </trkpt>
      <trkpt lat="43.39504" lon="2.47841">
        <ele>521.81</ele>
        <time>2019-12-18T09:14:36Z</time>
      </trkpt>
      <trkpt lat="43.395" lon="2.47828">
        <ele>521.54</ele>
        <time>2019-12-18T09:14:46Z</time>
      </trkpt>
      <trkpt lat="43.39492" lon="2.47813">
        <ele>521.88</ele>
        <time>2019-12-18T09:14:56Z</time>
      </trkpt>
      <trkpt lat="43.39481" lon="2.47807">
        <ele>521.79</ele>
        <time>2019-12-18T09:15:06Z</time>
      </trkpt>
      <trkpt lat="43.39478" lon="2.47807">
        <ele>521.79</ele>
        <time>2019-12-18T09:15:08Z</time>
      </trkpt>
      <trkpt lat="43.39465" lon="2.47808">
        <ele>522.31</ele>
        <time>2019-12-18T09:15:18Z</time>
      </trkpt>
      <trkpt lat="43.39454" lon="2.47811">
        <ele>523.35</ele>
        <time>2019-12-18T09:15:28Z</time>
      </trkpt>
      <trkpt lat="43.39442" lon="2.47811">
        <ele>524.37</ele>
        <time>2019-12-18T09:15:38Z</time>
      </trkpt>
      <trkpt lat="43.39435" lon="2.47815">
        <ele>525.91</ele>
        <time>2019-12-18T09:15:48Z</time>
      </trkpt>
      <trkpt lat="43.39425" lon="2.47821">
        <ele>527.74</ele>
        <time>2019-12-18T09:15:58Z</time>
      </trkpt>
      <trkpt lat="43.39417" lon="2.47826">
        <ele>528.94</ele>
        <time>2019-12-18T09:16:08Z</time>
      </trkpt>
      <trkpt lat="43.39407" lon="2.47831">
        <ele>529.86</ele>
        <time>2019-12-18T09:16:18Z</time>
      </trkpt>
      <trkpt lat="43.39396" lon="2.47835">
        <ele>531.31</ele>
        <time>2019-12-18T09:16:28Z</time>
      </trkpt>
      <trkpt lat="43.39387" lon="2.47837">
        <ele>532.83</ele>
        <time>2019-12-18T09:16:38Z</time>
      </trkpt>
      <trkpt lat="43.39376" lon="2.47842">
        <ele>533.62</ele>
        <time>2019-12-18T09:16:48Z</time>
      </trkpt>
      <trkpt lat="43.39364" lon="2.47849">
        <ele>534.69</ele>
        <time>2019-12-18T09:16:58Z</time>
      </trkpt>
      <trkpt lat="43.39351" lon="2.47857">
        <ele>535.42</ele>
        <time>2019-12-18T09:17:08Z</time>
      </trkpt>
      <trkpt lat="43.3934" lon="2.47863">
        <ele>537.37</ele>
        <time>2019-12-18T09:17:18Z</time>
      </trkpt>
      <trkpt lat="43.39329" lon="2.47865">
        <ele>539.93</ele>
        <time>2019-12-18T09:17:28Z</time>
      </trkpt>
      <trkpt lat="43.39317" lon="2.47869">
        <ele>541.21</ele>
        <time>2019-12-18T09:17:38Z</time>
      </trkpt>
      <trkpt lat="43.39307" lon="2.47871">
        <ele>542.45</ele>
        <time>2019-12-18T09:17:48Z</time>
      </trkpt>
      <trkpt lat="43.39293" lon="2.47874">
        <ele>545.36</ele>
        <time>2019-12-18T09:17:58Z</time>
      </trkpt>
      <trkpt lat="43.39283" lon="2.47872">
        <ele>548.39</ele>
        <time>2019-12-18T09:18:08Z</time>
      </trkpt>
      <trkpt lat="43.39273" lon="2.47872">
        <ele>551.31</ele>
        <time>2019-12-18T09:18:18Z</time>
      </trkpt>
      <trkpt lat="43.3926" lon="2.47875">
        <ele>554.38</ele>
        <time>2019-12-18T09:18:28Z</time>
      </trkpt>
      <trkpt lat="43.39249" lon="2.47874">
        <ele>557.04</ele>
        <time>2019-12-18T09:18:38Z</time>
      </trkpt>
      <trkpt lat="43.39238" lon="2.47874">
        <ele>559.64</ele>
        <time>2019-12-18T09:18:48Z</time>
      </trkpt>
      <trkpt lat="43.39226" lon="2.47875">
        <ele>562.53</ele>
        <time>2019-12-18T09:18:58Z</time>
      </trkpt>
      <trkpt lat="43.39217" lon="2.47875">
        <ele>565.44</ele>
        <time>2019-12-18T09:19:08Z</time>
      </trkpt>
      <trkpt lat="43.39217" lon="2.47874">
        <ele>567.68</ele>
        <time>2019-12-18T09:19:18Z</time>
      </trkpt>
      <trkpt lat="43.39216" lon="2.47869">
        <ele>569.81</ele>
        <time>2019-12-18T09:19:28Z</time>
      </trkpt>
      <trkpt lat="43.39214" lon="2.47868">
        <ele>573.15</ele>
        <time>2019-12-18T09:20:18Z</time>
      </trkpt>
      <trkpt lat="43.39209" lon="2.47866">
        <ele>573.06</ele>
        <time>2019-12-18T09:20:38Z</time>
      </trkpt>
      <trkpt lat="43.39212" lon="2.47867">
        <ele>571.4</ele>
        <time>2019-12-18T09:21:08Z</time>
      </trkpt>
      <trkpt lat="43.39209" lon="2.47865">
        <ele>572.17</ele>
        <time>2019-12-18T09:21:28Z</time>
      </trkpt>
      <trkpt lat="43.39165" lon="2.47861">
        <ele>598.71484375</ele>
      </trkpt>
      <trkpt lat="43.39164" lon="2.47861">
        <ele>599.08984375</ele>
      </trkpt>
      <trkpt lat="43.39158" lon="2.47851">
        <ele>598.13671875</ele>
      </trkpt>
      <trkpt lat="43.39149" lon="2.47843">
        <ele>600.05859375</ele>
      </trkpt>
      <trkpt lat="43.3914" lon="2.47838">
        <ele>602.88671875</ele>
      </trkpt>
      <trkpt lat="43.39133" lon="2.47831">
        <ele>604.44140625</ele>
      </trkpt>
      <trkpt lat="43.39126" lon="2.47821">
        <ele>605.21484375</ele>
      </trkpt>
      <trkpt lat="43.3912" lon="2.47811">
        <ele>605.93359375</ele>
      </trkpt>
      <trkpt lat="43.39114" lon="2.47801">
        <ele>606.53125</ele>
      </trkpt>
      <trkpt lat="43.39106" lon="2.47795">
        <ele>609.22265625</ele>
      </trkpt>
      <trkpt lat="43.39106" lon="2.47807">
        <ele>611.1328125</ele>
      </trkpt>
      <trkpt lat="43.39097" lon="2.47811">
        <ele>615.55859375</ele>
      </trkpt>
      <trkpt lat="43.39088" lon="2.4781">
        <ele>619.265625</ele>
      </trkpt>
      <trkpt lat="43.3908" lon="2.47804">
        <ele>622.1640625</ele>
      </trkpt>
      <trkpt lat="43.39072" lon="2.47811">
        <ele>624.37109375</ele>
      </trkpt>
      <trkpt lat="43.39063" lon="2.47817">
        <ele>625.7265625</ele>
      </trkpt>
      <trkpt lat="43.39056" lon="2.47825">
        <ele>626.59375</ele>
      </trkpt>
      <trkpt lat="43.39047" lon="2.47831">
        <ele>627.22265625</ele>
      </trkpt>
      <trkpt lat="43.39038" lon="2.4783">
        <ele>627.796875</ele>
      </trkpt>
      <trkpt lat="43.39031" lon="2.47822">
        <ele>628.734375</ele>
      </trkpt>
      <trkpt lat="43.39025" lon="2.4781">
        <ele>630.23046875</ele>
      </trkpt>
      <trkpt lat="43.39019" lon="2.478">
        <ele>630.97265625</ele>
      </trkpt>
      <trkpt lat="43.3901" lon="2.47797">
        <ele>630.1875</ele>
      </trkpt>
      <trkpt lat="43.39001" lon="2.47802">
        <ele>628.53515625</ele>
      </trkpt>
      <trkpt lat="43.38993" lon="2.47809">
        <ele>626.67578125</ele>
      </trkpt>
      <trkpt lat="43.38984" lon="2.47814">
        <ele>624.72265625</ele>
      </trkpt>
      <trkpt lat="43.38976" lon="2.47822">
        <ele>622.1328125</ele>
      </trkpt>
      <trkpt lat="43.38971" lon="2.47832">
        <ele>619.546875</ele>
      </trkpt>
      <trkpt lat="43.38962" lon="2.47832">
        <ele>617.734375</ele>
      </trkpt>
      <trkpt lat="43.38955" lon="2.47842">
        <ele>614.44921875</ele>
      </trkpt>
      <trkpt lat="43.38946" lon="2.47847">
        <ele>611.3984375</ele>
      </trkpt>
      <trkpt lat="43.38956" lon="2.47848">
        <ele>613.45703125</ele>
      </trkpt>
      <trkpt lat="43.38933" lon="2.47857">
        <ele>606.8125</ele>
      </trkpt>
      <trkpt lat="43.38924" lon="2.47861">
        <ele>604.16015625</ele>
      </trkpt>
      <trkpt lat="43.38915" lon="2.47865">
        <ele>601.484375</ele>
      </trkpt>
      <trkpt lat="43.38907" lon="2.47872">
        <ele>598.51171875</ele>
      </trkpt>
      <trkpt lat="43.389" lon="2.47881">
        <ele>595.5234375</ele>
      </trkpt>
      <trkpt lat="43.38892" lon="2.47887">
        <ele>592.625</ele>
      </trkpt>
      <trkpt lat="43.38885" lon="2.47897">
        <ele>589.49609375</ele>
      </trkpt>
      <trkpt lat="43.38879" lon="2.47908">
        <ele>586.265625</ele>
      </trkpt>
      <trkpt lat="43.38871" lon="2.47916">
        <ele>583.30859375</ele>
      </trkpt>
      <trkpt lat="43.38862" lon="2.47918">
        <ele>580.69921875</ele>
      </trkpt>
      <trkpt lat="43.38853" lon="2.4792">
        <ele>578.234375</ele>
      </trkpt>
      <trkpt lat="43.38848" lon="2.47931">
        <ele>575.3984375</ele>
      </trkpt>
      <trkpt lat="43.38842" lon="2.47941">
        <ele>572.6875</ele>
      </trkpt>
      <trkpt lat="43.38845" lon="2.47956">
        <ele>571.45703125</ele>
      </trkpt>
      <trkpt lat="43.38845" lon="2.47968">
        <ele>570.13671875</ele>
      </trkpt>
      <trkpt lat="43.38847" lon="2.47981">
        <ele>569.4609375</ele>
      </trkpt>
      <trkpt lat="43.38849" lon="2.47993">
        <ele>568.80078125</ele>
      </trkpt>
      <trkpt lat="43.38851" lon="2.48015">
        <ele>567.61328125</ele>
      </trkpt>
      <trkpt lat="43.38851" lon="2.48028">
        <ele>566.3515625</ele>
      </trkpt>
      <trkpt lat="43.38851" lon="2.48041">
        <ele>565.20703125</ele>
      </trkpt>
      <trkpt lat="43.38843" lon="2.48051">
        <ele>561.8671875</ele>
      </trkpt>
      <trkpt lat="43.38834" lon="2.48053">
        <ele>558.9296875</ele>
      </trkpt>
      <trkpt lat="43.38825" lon="2.48052">
        <ele>556.359375</ele>
      </trkpt>
      <trkpt lat="43.38816" lon="2.48048">
        <ele>554.05078125</ele>
      </trkpt>
      <trkpt lat="43.38807" lon="2.48043">
        <ele>551.89453125</ele>
      </trkpt>
      <trkpt lat="43.38784" lon="2.48041">
        <ele>545.35546875</ele>
      </trkpt>
      <trkpt lat="43.38775" lon="2.48036">
        <ele>543.27734375</ele>
      </trkpt>
      <trkpt lat="43.38766" lon="2.48033">
        <ele>540.92578125</ele>
      </trkpt>
      <trkpt lat="43.3876" lon="2.48023">
        <ele>540.29296875</ele>
      </trkpt>
      <trkpt lat="43.38753" lon="2.48015">
        <ele>539.28125</ele>
      </trkpt>
      <trkpt lat="43.38745" lon="2.48008">
        <ele>537.72265625</ele>
      </trkpt>
      <trkpt lat="43.38738" lon="2.48001">
        <ele>536.41796875</ele>
      </trkpt>
      <trkpt lat="43.3873" lon="2.47992">
        <ele>535.51953125</ele>
      </trkpt>
      <trkpt lat="43.38723" lon="2.47982">
        <ele>535.08203125</ele>
      </trkpt>
      <trkpt lat="43.38716" lon="2.47975">
        <ele>534.4609375</ele>
      </trkpt>
      <trkpt lat="43.38708" lon="2.47967">
        <ele>533.828125</ele>
      </trkpt>
      <trkpt lat="43.38698" lon="2.47961">
        <ele>532.73828125</ele>
      </trkpt>
      <trkpt lat="43.38689" lon="2.47956">
        <ele>531.8828125</ele>
      </trkpt>
      <trkpt lat="43.3868" lon="2.47951">
        <ele>531.28125</ele>
      </trkpt>
      <trkpt lat="43.38673" lon="2.47942">
        <ele>532.140625</ele>
      </trkpt>
      <trkpt lat="43.38666" lon="2.47935">
        <ele>532.77734375</ele>
      </trkpt>
      <trkpt lat="43.38658" lon="2.47928">
        <ele>533.00390625</ele>
      </trkpt>
      <trkpt lat="43.38645" lon="2.47927">
        <ele>511.11</ele>
        <time>2019-12-18T09:33:49Z</time>
      </trkpt>
      <trkpt lat="43.38632" lon="2.47923">
        <ele>510.31</ele>
        <time>2019-12-18T09:33:59Z</time>
      </trkpt>
      <trkpt lat="43.38621" lon="2.47922">
        <ele>508.65</ele>
        <time>2019-12-18T09:34:09Z</time>
      </trkpt>
      <trkpt lat="43.38603" lon="2.47923">
        <ele>507.06</ele>
        <time>2019-12-18T09:34:19Z</time>
      </trkpt>
      <trkpt lat="43.38585" lon="2.4792">
        <ele>506.15</ele>
        <time>2019-12-18T09:34:29Z</time>
      </trkpt>
      <trkpt lat="43.38571" lon="2.47913">
        <ele>504.96</ele>
        <time>2019-12-18T09:34:39Z</time>
      </trkpt>
      <trkpt lat="43.38556" lon="2.47914">
        <ele>502.29</ele>
        <time>2019-12-18T09:34:49Z</time>
      </trkpt>
      <trkpt lat="43.38543" lon="2.47913">
        <ele>499.87</ele>
        <time>2019-12-18T09:34:59Z</time>
      </trkpt>
      <trkpt lat="43.38524" lon="2.47911">
        <ele>497.67</ele>
        <time>2019-12-18T09:35:09Z</time>
      </trkpt>
      <trkpt lat="43.38512" lon="2.47907">
        <ele>496.02</ele>
        <time>2019-12-18T09:35:16Z</time>
      </trkpt>
      <trkpt lat="43.38492" lon="2.47905">
        <ele>493.9</ele>
        <time>2019-12-18T09:35:27Z</time>
      </trkpt>
      <trkpt lat="43.38484" lon="2.47903">
        <ele>491.46</ele>
        <time>2019-12-18T09:35:37Z</time>
      </trkpt>
      <trkpt lat="43.3849" lon="2.47918">
        <ele>486.93</ele>
        <time>2019-12-18T09:35:47Z</time>
      </trkpt>
      <trkpt lat="43.38501" lon="2.47934">
        <ele>482.45</ele>
        <time>2019-12-18T09:35:57Z</time>
      </trkpt>
      <trkpt lat="43.38514" lon="2.47954">
        <ele>478.18</ele>
        <time>2019-12-18T09:36:07Z</time>
      </trkpt>
      <trkpt lat="43.38524" lon="2.4797">
        <ele>474.63</ele>
        <time>2019-12-18T09:36:17Z</time>
      </trkpt>
      <trkpt lat="43.38534" lon="2.47989">
        <ele>468.93</ele>
        <time>2019-12-18T09:36:27Z</time>
      </trkpt>
      <trkpt lat="43.38541" lon="2.48006">
        <ele>466.49</ele>
        <time>2019-12-18T09:36:37Z</time>
      </trkpt>
      <trkpt lat="43.38551" lon="2.48024">
        <ele>463.81</ele>
        <time>2019-12-18T09:36:47Z</time>
      </trkpt>
      <trkpt lat="43.3856" lon="2.48039">
        <ele>459.21</ele>
        <time>2019-12-18T09:36:57Z</time>
      </trkpt>
      <trkpt lat="43.3857" lon="2.48048">
        <ele>454.31</ele>
        <time>2019-12-18T09:37:07Z</time>
      </trkpt>
      <trkpt lat="43.38572" lon="2.48054">
        <ele>455.51</ele>
        <time>2019-12-18T09:37:17Z</time>
      </trkpt>
      <trkpt lat="43.38566" lon="2.48055">
        <ele>457.29</ele>
        <time>2019-12-18T09:37:27Z</time>
      </trkpt>
      <trkpt lat="43.38566" lon="2.48056">
        <ele>460.28</ele>
        <time>2019-12-18T09:37:37Z</time>
      </trkpt>
      <trkpt lat="43.38574" lon="2.48056">
        <ele>461.08</ele>
        <time>2019-12-18T09:37:47Z</time>
      </trkpt>
      <trkpt lat="43.38567" lon="2.48065">
        <ele>461.12</ele>
        <time>2019-12-18T09:37:57Z</time>
      </trkpt>
      <trkpt lat="43.38559" lon="2.48067">
        <ele>461.47</ele>
        <time>2019-12-18T09:38:07Z</time>
      </trkpt>
      <trkpt lat="43.38548" lon="2.48067">
        <ele>461.62</ele>
        <time>2019-12-18T09:38:17Z</time>
      </trkpt>
      <trkpt lat="43.38541" lon="2.48066">
        <ele>461.3</ele>
        <time>2019-12-18T09:38:26Z</time>
      </trkpt>
      <trkpt lat="43.38527" lon="2.48059">
        <ele>460.91</ele>
        <time>2019-12-18T09:38:37Z</time>
      </trkpt>
      <trkpt lat="43.38523" lon="2.48065">
        <ele>460.43</ele>
        <time>2019-12-18T09:38:47Z</time>
      </trkpt>
      <trkpt lat="43.38528" lon="2.48077">
        <ele>459.25</ele>
        <time>2019-12-18T09:38:57Z</time>
      </trkpt>
      <trkpt lat="43.3852" lon="2.48086">
        <ele>458.67</ele>
        <time>2019-12-18T09:39:07Z</time>
      </trkpt>
      <trkpt lat="43.38511" lon="2.48086">
        <ele>457.99</ele>
        <time>2019-12-18T09:39:17Z</time>
      </trkpt>
      <trkpt lat="43.38509" lon="2.48086">
        <ele>457.28</ele>
        <time>2019-12-18T09:39:27Z</time>
      </trkpt>
      <trkpt lat="43.38507" lon="2.48092">
        <ele>458.11</ele>
        <time>2019-12-18T09:39:37Z</time>
      </trkpt>
      <trkpt lat="43.3851" lon="2.48098">
        <ele>457.25</ele>
        <time>2019-12-18T09:39:47Z</time>
      </trkpt>
      <trkpt lat="43.38511" lon="2.48102">
        <ele>456.57</ele>
        <time>2019-12-18T09:39:57Z</time>
      </trkpt>
      <trkpt lat="43.38514" lon="2.4811">
        <ele>455.07</ele>
        <time>2019-12-18T09:40:07Z</time>
      </trkpt>
      <trkpt lat="43.38509" lon="2.48119">
        <ele>454.69</ele>
        <time>2019-12-18T09:40:17Z</time>
      </trkpt>
      <trkpt lat="43.3851" lon="2.48132">
        <ele>452.92</ele>
        <time>2019-12-18T09:40:27Z</time>
      </trkpt>
      <trkpt lat="43.38512" lon="2.48132">
        <ele>451.12</ele>
        <time>2019-12-18T09:40:37Z</time>
      </trkpt>
      <trkpt lat="43.38518" lon="2.48139">
        <ele>450.08</ele>
        <time>2019-12-18T09:40:47Z</time>
      </trkpt>
      <trkpt lat="43.38524" lon="2.48144">
        <ele>447.75</ele>
        <time>2019-12-18T09:40:57Z</time>
      </trkpt>
      <trkpt lat="43.38523" lon="2.48148">
        <ele>446.06</ele>
        <time>2019-12-18T09:41:07Z</time>
      </trkpt>
      <trkpt lat="43.38521" lon="2.48151">
        <ele>446.99</ele>
        <time>2019-12-18T09:41:17Z</time>
      </trkpt>
      <trkpt lat="43.38521" lon="2.48155">
        <ele>449.37</ele>
        <time>2019-12-18T09:41:27Z</time>
      </trkpt>
      <trkpt lat="43.38522" lon="2.48156">
        <ele>449.75</ele>
        <time>2019-12-18T09:41:37Z</time>
      </trkpt>
      <trkpt lat="43.38523" lon="2.4816">
        <ele>450.29</ele>
        <time>2019-12-18T09:41:47Z</time>
      </trkpt>
      <trkpt lat="43.38522" lon="2.48161">
        <ele>450.26</ele>
        <time>2019-12-18T09:41:57Z</time>
      </trkpt>
      <trkpt lat="43.38521" lon="2.48158">
        <ele>451.03</ele>
        <time>2019-12-18T09:42:07Z</time>
      </trkpt>
      <trkpt lat="43.38521" lon="2.48157">
        <ele>451.64</ele>
        <time>2019-12-18T09:42:17Z</time>
      </trkpt>
      <trkpt lat="43.3852" lon="2.48156">
        <ele>451.12</ele>
        <time>2019-12-18T09:42:27Z</time>
      </trkpt>
      <trkpt lat="43.38523" lon="2.48162">
        <ele>450.37</ele>
        <time>2019-12-18T09:42:37Z</time>
      </trkpt>
      <trkpt lat="43.38529" lon="2.48176">
        <ele>449.73</ele>
        <time>2019-12-18T09:42:47Z</time>
      </trkpt>
      <trkpt lat="43.38525" lon="2.48188">
        <ele>447.44</ele>
        <time>2019-12-18T09:42:57Z</time>
      </trkpt>
      <trkpt lat="43.38522" lon="2.48195">
        <ele>446.51</ele>
        <time>2019-12-18T09:43:07Z</time>
      </trkpt>
      <trkpt lat="43.38513" lon="2.48204">
        <ele>446.08</ele>
        <time>2019-12-18T09:43:17Z</time>
      </trkpt>
      <trkpt lat="43.38502" lon="2.48208">
        <ele>446.4</ele>
        <time>2019-12-18T09:43:27Z</time>
      </trkpt>
      <trkpt lat="43.38495" lon="2.48207">
        <ele>447.12</ele>
        <time>2019-12-18T09:43:37Z</time>
      </trkpt>
      <trkpt lat="43.38487" lon="2.48207">
        <ele>447.92</ele>
        <time>2019-12-18T09:43:47Z</time>
      </trkpt>
      <trkpt lat="43.38476" lon="2.48205">
        <ele>448.64</ele>
        <time>2019-12-18T09:43:57Z</time>
      </trkpt>
      <trkpt lat="43.38465" lon="2.48202">
        <ele>448.9</ele>
        <time>2019-12-18T09:44:07Z</time>
      </trkpt>
      <trkpt lat="43.38454" lon="2.48196">
        <ele>448.45</ele>
        <time>2019-12-18T09:44:17Z</time>
      </trkpt>
      <trkpt lat="43.38443" lon="2.48191">
        <ele>448.56</ele>
        <time>2019-12-18T09:44:27Z</time>
      </trkpt>
      <trkpt lat="43.38434" lon="2.48177">
        <ele>446.76</ele>
        <time>2019-12-18T09:44:37Z</time>
      </trkpt>
      <trkpt lat="43.38432" lon="2.4817">
        <ele>447.32</ele>
        <time>2019-12-18T09:44:47Z</time>
      </trkpt>
      <trkpt lat="43.3842" lon="2.48165">
        <ele>447.8</ele>
        <time>2019-12-18T09:44:57Z</time>
      </trkpt>
      <trkpt lat="43.38418" lon="2.48164">
        <ele>447.72</ele>
        <time>2019-12-18T09:44:58Z</time>
      </trkpt>
      <trkpt lat="43.38414" lon="2.48164">
        <ele>447.61</ele>
        <time>2019-12-18T09:45:00Z</time>
      </trkpt>
      <trkpt lat="43.384" lon="2.48164">
        <ele>446.41</ele>
        <time>2019-12-18T09:45:10Z</time>
      </trkpt>
      <trkpt lat="43.38384" lon="2.48165">
        <ele>445.86</ele>
        <time>2019-12-18T09:45:19Z</time>
      </trkpt>
      <trkpt lat="43.38382" lon="2.48164">
        <ele>445.89</ele>
        <time>2019-12-18T09:45:20Z</time>
      </trkpt>
      <trkpt lat="43.38372" lon="2.48161">
        <ele>445.23</ele>
        <time>2019-12-18T09:45:26Z</time>
      </trkpt>
      <trkpt lat="43.38371" lon="2.48161">
        <ele>445.13</ele>
        <time>2019-12-18T09:45:27Z</time>
      </trkpt>
      <trkpt lat="43.38355" lon="2.48159">
        <ele>444.24</ele>
        <time>2019-12-18T09:45:37Z</time>
      </trkpt>
      <trkpt lat="43.38338" lon="2.48154">
        <ele>444.19</ele>
        <time>2019-12-18T09:45:47Z</time>
      </trkpt>
      <trkpt lat="43.3833" lon="2.48143">
        <ele>443.28</ele>
        <time>2019-12-18T09:45:53Z</time>
      </trkpt>
      <trkpt lat="43.38328" lon="2.48142">
        <ele>443.58</ele>
        <time>2019-12-18T09:45:54Z</time>
      </trkpt>
      <trkpt lat="43.38324" lon="2.4814">
        <ele>443.8</ele>
        <time>2019-12-18T09:45:56Z</time>
      </trkpt>
      <trkpt lat="43.38307" lon="2.48125">
        <ele>446.25</ele>
        <time>2019-12-18T09:46:06Z</time>
      </trkpt>
      <trkpt lat="43.38298" lon="2.48117">
        <ele>446.89</ele>
        <time>2019-12-18T09:46:12Z</time>
      </trkpt>
      <trkpt lat="43.38296" lon="2.48116">
        <ele>446.97</ele>
        <time>2019-12-18T09:46:13Z</time>
      </trkpt>
      <trkpt lat="43.38295" lon="2.48114">
        <ele>446.91</ele>
        <time>2019-12-18T09:46:14Z</time>
      </trkpt>
      <trkpt lat="43.38293" lon="2.48112">
        <ele>446.87</ele>
        <time>2019-12-18T09:46:15Z</time>
      </trkpt>
      <trkpt lat="43.38279" lon="2.48109">
        <ele>448.61</ele>
        <time>2019-12-18T09:46:25Z</time>
      </trkpt>
      <trkpt lat="43.38265" lon="2.48099">
        <ele>451.02</ele>
        <time>2019-12-18T09:46:35Z</time>
      </trkpt>
      <trkpt lat="43.38261" lon="2.48093">
        <ele>451.34</ele>
        <time>2019-12-18T09:46:39Z</time>
      </trkpt>
      <trkpt lat="43.3826" lon="2.48093">
        <ele>451.53</ele>
        <time>2019-12-18T09:46:40Z</time>
      </trkpt>
      <trkpt lat="43.38256" lon="2.48091">
        <ele>452.05</ele>
        <time>2019-12-18T09:46:42Z</time>
      </trkpt>
      <trkpt lat="43.38251" lon="2.48087">
        <ele>452.85</ele>
        <time>2019-12-18T09:46:46Z</time>
      </trkpt>
      <trkpt lat="43.38248" lon="2.48086">
        <ele>452.96</ele>
        <time>2019-12-18T09:46:48Z</time>
      </trkpt>
      <trkpt lat="43.38234" lon="2.48081">
        <ele>455.16</ele>
        <time>2019-12-18T09:46:57Z</time>
      </trkpt>
      <trkpt lat="43.38233" lon="2.48079">
        <ele>455.48</ele>
        <time>2019-12-18T09:46:58Z</time>
      </trkpt>
      <trkpt lat="43.38226" lon="2.48074">
        <ele>457.52</ele>
        <time>2019-12-18T09:47:03Z</time>
      </trkpt>
      <trkpt lat="43.38218" lon="2.48061">
        <ele>459.23</ele>
        <time>2019-12-18T09:47:12Z</time>
      </trkpt>
      <trkpt lat="43.38219" lon="2.48059">
        <ele>459.37</ele>
        <time>2019-12-18T09:47:13Z</time>
      </trkpt>
      <trkpt lat="43.38214" lon="2.48043">
        <ele>461.99</ele>
        <time>2019-12-18T09:47:21Z</time>
      </trkpt>
      <trkpt lat="43.38211" lon="2.48039">
        <ele>462.24</ele>
        <time>2019-12-18T09:47:23Z</time>
      </trkpt>
      <trkpt lat="43.38208" lon="2.48037">
        <ele>462.41</ele>
        <time>2019-12-18T09:47:25Z</time>
      </trkpt>
      <trkpt lat="43.38207" lon="2.48036">
        <ele>462.4</ele>
        <time>2019-12-18T09:47:26Z</time>
      </trkpt>
      <trkpt lat="43.38203" lon="2.48029">
        <ele>462.52</ele>
        <time>2019-12-18T09:47:28Z</time>
      </trkpt>
      <trkpt lat="43.38201" lon="2.48023">
        <ele>462.48</ele>
        <time>2019-12-18T09:47:29Z</time>
      </trkpt>
      <trkpt lat="43.38183" lon="2.48004">
        <ele>462.34</ele>
        <time>2019-12-18T09:47:35Z</time>
      </trkpt>
      <trkpt lat="43.38182" lon="2.48009">
        <ele>462.51</ele>
        <time>2019-12-18T09:47:36Z</time>
      </trkpt>
      <trkpt lat="43.38181" lon="2.48011">
        <ele>462.95</ele>
        <time>2019-12-18T09:47:37Z</time>
      </trkpt>
      <trkpt lat="43.3818" lon="2.48012">
        <ele>463.2</ele>
        <time>2019-12-18T09:47:38Z</time>
      </trkpt>
      <trkpt lat="43.38173" lon="2.48015">
        <ele>463.86</ele>
        <time>2019-12-18T09:47:42Z</time>
      </trkpt>
      <trkpt lat="43.38166" lon="2.48007">
        <ele>463.54</ele>
        <time>2019-12-18T09:47:44Z</time>
      </trkpt>
      <trkpt lat="43.38142" lon="2.47978">
        <ele>461.17</ele>
        <time>2019-12-18T09:47:49Z</time>
      </trkpt>
      <trkpt lat="43.38139" lon="2.47979">
        <ele>461.74</ele>
        <time>2019-12-18T09:47:50Z</time>
      </trkpt>
      <trkpt lat="43.38137" lon="2.47979">
        <ele>461.96</ele>
        <time>2019-12-18T09:47:51Z</time>
      </trkpt>
      <trkpt lat="43.38135" lon="2.4798">
        <ele>462.31</ele>
        <time>2019-12-18T09:47:52Z</time>
      </trkpt>
      <trkpt lat="43.38131" lon="2.47986">
        <ele>462.48</ele>
        <time>2019-12-18T09:47:55Z</time>
      </trkpt>
      <trkpt lat="43.38129" lon="2.47988">
        <ele>462.53</ele>
        <time>2019-12-18T09:47:56Z</time>
      </trkpt>
      <trkpt lat="43.3809" lon="2.47975">
        <ele>502.62109375</ele>
      </trkpt>
      <trkpt lat="43.38081" lon="2.47944">
        <ele>504.15625</ele>
      </trkpt>
      <trkpt lat="43.38081" lon="2.47875">
        <ele>506.19921875</ele>
      </trkpt>
      <trkpt lat="43.38085" lon="2.47812">
        <ele>520.3359375</ele>
      </trkpt>
      <trkpt lat="43.38103" lon="2.4775">
        <ele>520.1875</ele>
      </trkpt>
      <trkpt lat="43.38103" lon="2.47687">
        <ele>518.71875</ele>
      </trkpt>
      <trkpt lat="43.38081" lon="2.47625">
        <ele>526.828125</ele>
      </trkpt>
      <trkpt lat="43.38045" lon="2.47581">
        <ele>546.72265625</ele>
      </trkpt>
      <trkpt lat="43.38022" lon="2.47525">
        <ele>552.515625</ele>
      </trkpt>
      <trkpt lat="43.38" lon="2.47463">
        <ele>546.6328125</ele>
      </trkpt>
      <trkpt lat="43.37973" lon="2.47413">
        <ele>542.44140625</ele>
      </trkpt>
      <trkpt lat="43.37941" lon="2.47363">
        <ele>549.9609375</ele>
      </trkpt>
      <trkpt lat="43.37914" lon="2.47313">
        <ele>560.4765625</ele>
      </trkpt>
      <trkpt lat="43.37887" lon="2.47256">
        <ele>564.12109375</ele>
      </trkpt>
      <trkpt lat="43.37856" lon="2.47206">
        <ele>559.4609375</ele>
      </trkpt>
      <trkpt lat="43.37811" lon="2.47188">
        <ele>546.640625</ele>
      </trkpt>
      <trkpt lat="43.37766" lon="2.47188">
        <ele>550.3671875</ele>
      </trkpt>
      <trkpt lat="43.37726" lon="2.47219">
        <ele>573.5234375</ele>
      </trkpt>
      <trkpt lat="43.37681" lon="2.47231">
        <ele>589.04296875</ele>
      </trkpt>
      <trkpt lat="43.37636" lon="2.47244">
        <ele>595.42578125</ele>
      </trkpt>
      <trkpt lat="43.37591" lon="2.47244">
        <ele>582.02734375</ele>
      </trkpt>
      <trkpt lat="43.37546" lon="2.47256">
        <ele>573.66796875</ele>
      </trkpt>
      <trkpt lat="43.37483" lon="2.47288">
        <ele>576.1015625</ele>
      </trkpt>
      <trkpt lat="43.37438" lon="2.47313">
        <ele>583.796875</ele>
      </trkpt>
      <trkpt lat="43.37393" lon="2.47325">
        <ele>584.0234375</ele>
      </trkpt>
      <trkpt lat="43.37348" lon="2.47338">
        <ele>582.55078125</ele>
      </trkpt>
      <trkpt lat="43.37304" lon="2.47344">
        <ele>581.39453125</ele>
      </trkpt>
      <trkpt lat="43.37263" lon="2.47375">
        <ele>595.37890625</ele>
      </trkpt>
      <trkpt lat="43.37223" lon="2.47406">
        <ele>606.33984375</ele>
      </trkpt>
      <trkpt lat="43.37178" lon="2.47419">
        <ele>612.87890625</ele>
      </trkpt>
      <trkpt lat="43.37133" lon="2.47425">
        <ele>623.07421875</ele>
      </trkpt>
      <trkpt lat="43.37101" lon="2.47375">
        <ele>632.734375</ele>
      </trkpt>
      <trkpt lat="43.37101" lon="2.47306">
        <ele>633.65625</ele>
      </trkpt>
      <trkpt lat="43.37079" lon="2.4725">
        <ele>630.91015625</ele>
      </trkpt>
      <trkpt lat="43.37057" lon="2.47188">
        <ele>620.55859375</ele>
      </trkpt>
      <trkpt lat="43.37012" lon="2.47175">
        <ele>607.36328125</ele>
      </trkpt>
      <trkpt lat="43.37012" lon="2.47132">
        <ele>577.91</ele>
        <time>2019-12-18T10:12:34Z</time>
      </trkpt>
      <trkpt lat="43.36995" lon="2.47131">
        <ele>573.13</ele>
        <time>2019-12-18T10:12:44Z</time>
      </trkpt>
      <trkpt lat="43.36981" lon="2.4713">
        <ele>569.27</ele>
        <time>2019-12-18T10:12:54Z</time>
      </trkpt>
      <trkpt lat="43.36973" lon="2.47125">
        <ele>565.53</ele>
        <time>2019-12-18T10:13:04Z</time>
      </trkpt>
      <trkpt lat="43.36968" lon="2.47102">
        <ele>562.96</ele>
        <time>2019-12-18T10:13:14Z</time>
      </trkpt>
      <trkpt lat="43.36969" lon="2.47089">
        <ele>560.77</ele>
        <time>2019-12-18T10:13:24Z</time>
      </trkpt>
      <trkpt lat="43.36976" lon="2.4708">
        <ele>558.83</ele>
        <time>2019-12-18T10:13:34Z</time>
      </trkpt>
      <trkpt lat="43.36965" lon="2.47065">
        <ele>559.33</ele>
        <time>2019-12-18T10:13:44Z</time>
      </trkpt>
      <trkpt lat="43.36966" lon="2.47058">
        <ele>558.75</ele>
        <time>2019-12-18T10:13:54Z</time>
      </trkpt>
      <trkpt lat="43.36971" lon="2.47049">
        <ele>557.74</ele>
        <time>2019-12-18T10:14:04Z</time>
      </trkpt>
      <trkpt lat="43.36974" lon="2.47038">
        <ele>555.62</ele>
        <time>2019-12-18T10:14:14Z</time>
      </trkpt>
      <trkpt lat="43.36979" lon="2.47035">
        <ele>554.95</ele>
        <time>2019-12-18T10:14:23Z</time>
      </trkpt>
      <trkpt lat="43.36981" lon="2.47033">
        <ele>555.54</ele>
        <time>2019-12-18T10:14:34Z</time>
      </trkpt>
      <trkpt lat="43.36986" lon="2.47021">
        <ele>555.68</ele>
        <time>2019-12-18T10:14:44Z</time>
      </trkpt>
      <trkpt lat="43.36995" lon="2.47013">
        <ele>554.72</ele>
        <time>2019-12-18T10:14:54Z</time>
      </trkpt>
      <trkpt lat="43.37001" lon="2.47004">
        <ele>552.93</ele>
        <time>2019-12-18T10:15:04Z</time>
      </trkpt>
      <trkpt lat="43.37004" lon="2.4699">
        <ele>550.53</ele>
        <time>2019-12-18T10:15:14Z</time>
      </trkpt>
      <trkpt lat="43.37003" lon="2.46989">
        <ele>550.98</ele>
        <time>2019-12-18T10:15:24Z</time>
      </trkpt>
      <trkpt lat="43.37" lon="2.46989">
        <ele>552.06</ele>
        <time>2019-12-18T10:15:34Z</time>
      </trkpt>
      <trkpt lat="43.37001" lon="2.4698">
        <ele>552.2</ele>
        <time>2019-12-18T10:15:44Z</time>
      </trkpt>
      <trkpt lat="43.37005" lon="2.4697">
        <ele>551.76</ele>
        <time>2019-12-18T10:15:54Z</time>
      </trkpt>
      <trkpt lat="43.37012" lon="2.4696">
        <ele>550.19</ele>
        <time>2019-12-18T10:16:04Z</time>
      </trkpt>
      <trkpt lat="43.37017" lon="2.46947">
        <ele>547.73</ele>
        <time>2019-12-18T10:16:14Z</time>
      </trkpt>
      <trkpt lat="43.37023" lon="2.46929">
        <ele>544.54</ele>
        <time>2019-12-18T10:16:24Z</time>
      </trkpt>
      <trkpt lat="43.37031" lon="2.46915">
        <ele>540.12</ele>
        <time>2019-12-18T10:16:34Z</time>
      </trkpt>
      <trkpt lat="43.37035" lon="2.46906">
        <ele>538.75</ele>
        <time>2019-12-18T10:16:44Z</time>
      </trkpt>
      <trkpt lat="43.37042" lon="2.46893">
        <ele>536.39</ele>
        <time>2019-12-18T10:16:54Z</time>
      </trkpt>
      <trkpt lat="43.3705" lon="2.46879">
        <ele>531.63</ele>
        <time>2019-12-18T10:17:04Z</time>
      </trkpt>
      <trkpt lat="43.37056" lon="2.46862">
        <ele>526.5</ele>
        <time>2019-12-18T10:17:14Z</time>
      </trkpt>
      <trkpt lat="43.37065" lon="2.46846">
        <ele>521.42</ele>
        <time>2019-12-18T10:17:24Z</time>
      </trkpt>
      <trkpt lat="43.37072" lon="2.46819">
        <ele>517.48</ele>
        <time>2019-12-18T10:17:34Z</time>
      </trkpt>
      <trkpt lat="43.37083" lon="2.46799">
        <ele>512.34</ele>
        <time>2019-12-18T10:17:44Z</time>
      </trkpt>
      <trkpt lat="43.37088" lon="2.46777">
        <ele>507.89</ele>
        <time>2019-12-18T10:17:54Z</time>
      </trkpt>
      <trkpt lat="43.37092" lon="2.46758">
        <ele>506.27</ele>
        <time>2019-12-18T10:18:04Z</time>
      </trkpt>
      <trkpt lat="43.371" lon="2.46746">
        <ele>505.05</ele>
        <time>2019-12-18T10:18:14Z</time>
      </trkpt>
      <trkpt lat="43.37106" lon="2.46733">
        <ele>502.99</ele>
        <time>2019-12-18T10:18:24Z</time>
      </trkpt>
      <trkpt lat="43.37116" lon="2.46723">
        <ele>500.07</ele>
        <time>2019-12-18T10:18:34Z</time>
      </trkpt>
      <trkpt lat="43.37115" lon="2.46706">
        <ele>498.66</ele>
        <time>2019-12-18T10:18:44Z</time>
      </trkpt>
      <trkpt lat="43.37116" lon="2.46701">
        <ele>499.34</ele>
        <time>2019-12-18T10:18:54Z</time>
      </trkpt>
      <trkpt lat="43.37128" lon="2.46705">
        <ele>498.86</ele>
        <time>2019-12-18T10:19:04Z</time>
      </trkpt>
      <trkpt lat="43.3714" lon="2.46706">
        <ele>496.57</ele>
        <time>2019-12-18T10:19:14Z</time>
      </trkpt>
      <trkpt lat="43.37157" lon="2.46707">
        <ele>492.29</ele>
        <time>2019-12-18T10:19:24Z</time>
      </trkpt>
      <trkpt lat="43.37176" lon="2.46701">
        <ele>486.16</ele>
        <time>2019-12-18T10:19:34Z</time>
      </trkpt>
      <trkpt lat="43.37196" lon="2.46699">
        <ele>482.4</ele>
        <time>2019-12-18T10:19:44Z</time>
      </trkpt>
      <trkpt lat="43.37213" lon="2.46695">
        <ele>479.08</ele>
        <time>2019-12-18T10:19:54Z</time>
      </trkpt>
      <trkpt lat="43.37231" lon="2.46691">
        <ele>474.38</ele>
        <time>2019-12-18T10:20:04Z</time>
      </trkpt>
      <trkpt lat="43.37245" lon="2.46684">
        <ele>472.15</ele>
        <time>2019-12-18T10:20:14Z</time>
      </trkpt>
      <trkpt lat="43.37247" lon="2.46674">
        <ele>471.06</ele>
        <time>2019-12-18T10:20:24Z</time>
      </trkpt>
      <trkpt lat="43.37246" lon="2.46664">
        <ele>468.96</ele>
        <time>2019-12-18T10:20:34Z</time>
      </trkpt>
      <trkpt lat="43.37242" lon="2.46655">
        <ele>466.11</ele>
        <time>2019-12-18T10:20:44Z</time>
      </trkpt>
      <trkpt lat="43.37236" lon="2.46636">
        <ele>462.61</ele>
        <time>2019-12-18T10:20:54Z</time>
      </trkpt>
      <trkpt lat="43.37224" lon="2.46609">
        <ele>458.44</ele>
        <time>2019-12-18T10:21:04Z</time>
      </trkpt>
      <trkpt lat="43.37216" lon="2.4659">
        <ele>455.88</ele>
        <time>2019-12-18T10:21:14Z</time>
      </trkpt>
      <trkpt lat="43.37217" lon="2.4658">
        <ele>453.21</ele>
        <time>2019-12-18T10:21:24Z</time>
      </trkpt>
      <trkpt lat="43.37213" lon="2.46548">
        <ele>447.94</ele>
        <time>2019-12-18T10:21:34Z</time>
      </trkpt>
      <trkpt lat="43.37205" lon="2.46529">
        <ele>446.44</ele>
        <time>2019-12-18T10:21:44Z</time>
      </trkpt>
      <trkpt lat="43.37205" lon="2.4653">
        <ele>446.73</ele>
        <time>2019-12-18T10:21:54Z</time>
      </trkpt>
      <trkpt lat="43.37211" lon="2.46526">
        <ele>444.41</ele>
        <time>2019-12-18T10:22:04Z</time>
      </trkpt>
      <trkpt lat="43.37219" lon="2.46515">
        <ele>442.37</ele>
        <time>2019-12-18T10:22:14Z</time>
      </trkpt>
      <trkpt lat="43.37228" lon="2.46506">
        <ele>437.29</ele>
        <time>2019-12-18T10:22:24Z</time>
      </trkpt>
      <trkpt lat="43.37237" lon="2.46495">
        <ele>434.53</ele>
        <time>2019-12-18T10:22:34Z</time>
      </trkpt>
      <trkpt lat="43.37243" lon="2.46475">
        <ele>429.12</ele>
        <time>2019-12-18T10:22:44Z</time>
      </trkpt>
      <trkpt lat="43.37247" lon="2.46453">
        <ele>423.47</ele>
        <time>2019-12-18T10:22:54Z</time>
      </trkpt>
      <trkpt lat="43.37249" lon="2.46426">
        <ele>417.93</ele>
        <time>2019-12-18T10:23:04Z</time>
      </trkpt>
      <trkpt lat="43.37254" lon="2.46402">
        <ele>413.3</ele>
        <time>2019-12-18T10:23:14Z</time>
      </trkpt>
      <trkpt lat="43.37255" lon="2.46376">
        <ele>406.83</ele>
        <time>2019-12-18T10:23:24Z</time>
      </trkpt>
      <trkpt lat="43.3726" lon="2.46355">
        <ele>402.88</ele>
        <time>2019-12-18T10:23:34Z</time>
      </trkpt>
      <trkpt lat="43.37273" lon="2.46348">
        <ele>397.67</ele>
        <time>2019-12-18T10:23:44Z</time>
      </trkpt>
      <trkpt lat="43.3728" lon="2.46338">
        <ele>389.55</ele>
        <time>2019-12-18T10:23:54Z</time>
      </trkpt>
      <trkpt lat="43.37278" lon="2.46316">
        <ele>384.06</ele>
        <time>2019-12-18T10:24:04Z</time>
      </trkpt>
      <trkpt lat="43.37271" lon="2.46295">
        <ele>378.06</ele>
        <time>2019-12-18T10:24:14Z</time>
      </trkpt>
      <trkpt lat="43.37268" lon="2.4628">
        <ele>375.79</ele>
        <time>2019-12-18T10:24:24Z</time>
      </trkpt>
      <trkpt lat="43.37274" lon="2.46271">
        <ele>373.47</ele>
        <time>2019-12-18T10:24:34Z</time>
      </trkpt>
      <trkpt lat="43.37279" lon="2.4627">
        <ele>369.66</ele>
        <time>2019-12-18T10:24:44Z</time>
      </trkpt>
      <trkpt lat="43.37277" lon="2.4626">
        <ele>365.36</ele>
        <time>2019-12-18T10:24:54Z</time>
      </trkpt>
      <trkpt lat="43.37273" lon="2.46246">
        <ele>362.08</ele>
        <time>2019-12-18T10:25:04Z</time>
      </trkpt>
      <trkpt lat="43.37271" lon="2.46224">
        <ele>355.69</ele>
        <time>2019-12-18T10:25:14Z</time>
      </trkpt>
      <trkpt lat="43.37269" lon="2.46214">
        <ele>353.2</ele>
        <time>2019-12-18T10:25:24Z</time>
      </trkpt>
      <trkpt lat="43.37266" lon="2.46209">
        <ele>352.44</ele>
        <time>2019-12-18T10:25:34Z</time>
      </trkpt>
      <trkpt lat="43.37264" lon="2.46212">
        <ele>350.65</ele>
        <time>2019-12-18T10:25:44Z</time>
      </trkpt>
      <trkpt lat="43.37263" lon="2.46216">
        <ele>349.78</ele>
        <time>2019-12-18T10:25:54Z</time>
      </trkpt>
      <trkpt lat="43.37261" lon="2.46215">
        <ele>349.33</ele>
        <time>2019-12-18T10:26:04Z</time>
      </trkpt>
      <trkpt lat="43.3726" lon="2.46212">
        <ele>348.71</ele>
        <time>2019-12-18T10:26:14Z</time>
      </trkpt>
      <trkpt lat="43.3726" lon="2.4621">
        <ele>348</ele>
        <time>2019-12-18T10:26:24Z</time>
      </trkpt>
      <trkpt lat="43.3726" lon="2.46208">
        <ele>347.74</ele>
        <time>2019-12-18T10:26:28Z</time>
      </trkpt>
      <trkpt lat="43.37261" lon="2.46207">
        <ele>348.17</ele>
        <time>2019-12-18T10:26:38Z</time>
      </trkpt>
      <trkpt lat="43.37259" lon="2.46205">
        <ele>349.44</ele>
        <time>2019-12-18T10:26:48Z</time>
      </trkpt>
      <trkpt lat="43.37253" lon="2.46202">
        <ele>350.31</ele>
        <time>2019-12-18T10:26:58Z</time>
      </trkpt>
      <trkpt lat="43.37242" lon="2.46194">
        <ele>348.84</ele>
        <time>2019-12-18T10:27:08Z</time>
      </trkpt>
      <trkpt lat="43.3723" lon="2.46187">
        <ele>346.86</ele>
        <time>2019-12-18T10:27:18Z</time>
      </trkpt>
      <trkpt lat="43.3721" lon="2.46188">
        <ele>341.16</ele>
        <time>2019-12-18T10:27:28Z</time>
      </trkpt>
      <trkpt lat="43.37185" lon="2.46187">
        <ele>334.96</ele>
        <time>2019-12-18T10:27:38Z</time>
      </trkpt>
      <trkpt lat="43.37161" lon="2.4618">
        <ele>331.85</ele>
        <time>2019-12-18T10:27:48Z</time>
      </trkpt>
      <trkpt lat="43.37135" lon="2.46168">
        <ele>328.32</ele>
        <time>2019-12-18T10:27:58Z</time>
      </trkpt>
      <trkpt lat="43.37107" lon="2.4616">
        <ele>327.14</ele>
        <time>2019-12-18T10:28:08Z</time>
      </trkpt>
      <trkpt lat="43.37083" lon="2.46153">
        <ele>324.12</ele>
        <time>2019-12-18T10:28:18Z</time>
      </trkpt>
      <trkpt lat="43.37074" lon="2.46124">
        <ele>323.91</ele>
        <time>2019-12-18T10:28:28Z</time>
      </trkpt>
      <trkpt lat="43.37057" lon="2.46108">
        <ele>323</ele>
        <time>2019-12-18T10:28:38Z</time>
      </trkpt>
      <trkpt lat="43.37048" lon="2.4611">
        <ele>323.24</ele>
        <time>2019-12-18T10:28:48Z</time>
      </trkpt>
      <trkpt lat="43.37028" lon="2.46103">
        <ele>321.96</ele>
        <time>2019-12-18T10:28:58Z</time>
      </trkpt>
      <trkpt lat="43.37005" lon="2.46095">
        <ele>318.94</ele>
        <time>2019-12-18T10:29:08Z</time>
      </trkpt>
      <trkpt lat="43.36982" lon="2.46086">
        <ele>317.15</ele>
        <time>2019-12-18T10:29:18Z</time>
      </trkpt>
      <trkpt lat="43.36958" lon="2.46075">
        <ele>313.3</ele>
        <time>2019-12-18T10:29:28Z</time>
      </trkpt>
      <trkpt lat="43.36933" lon="2.46059">
        <ele>309.67</ele>
        <time>2019-12-18T10:29:38Z</time>
      </trkpt>
      <trkpt lat="43.36905" lon="2.46035">
        <ele>311.18</ele>
        <time>2019-12-18T10:29:48Z</time>
      </trkpt>
      <trkpt lat="43.36897" lon="2.45999">
        <ele>314.28</ele>
        <time>2019-12-18T10:29:58Z</time>
      </trkpt>
      <trkpt lat="43.36902" lon="2.45964">
        <ele>312.29</ele>
        <time>2019-12-18T10:30:08Z</time>
      </trkpt>
      <trkpt lat="43.36911" lon="2.45934">
        <ele>313.15</ele>
        <time>2019-12-18T10:30:18Z</time>
      </trkpt>
      <trkpt lat="43.36922" lon="2.45906">
        <ele>309.52</ele>
        <time>2019-12-18T10:30:28Z</time>
      </trkpt>
      <trkpt lat="43.36935" lon="2.45873">
        <ele>304.39</ele>
        <time>2019-12-18T10:30:38Z</time>
      </trkpt>
      <trkpt lat="43.36936" lon="2.4584">
        <ele>301.95</ele>
        <time>2019-12-18T10:30:48Z</time>
      </trkpt>
      <trkpt lat="43.36919" lon="2.45821">
        <ele>297.77</ele>
        <time>2019-12-18T10:30:58Z</time>
      </trkpt>
      <trkpt lat="43.36895" lon="2.45814">
        <ele>292.8</ele>
        <time>2019-12-18T10:31:08Z</time>
      </trkpt>
      <trkpt lat="43.36865" lon="2.45806">
        <ele>285.94</ele>
        <time>2019-12-18T10:31:18Z</time>
      </trkpt>
      <trkpt lat="43.36833" lon="2.45803">
        <ele>283.15</ele>
        <time>2019-12-18T10:31:28Z</time>
      </trkpt>
      <trkpt lat="43.368" lon="2.458">
        <ele>286.76</ele>
        <time>2019-12-18T10:31:38Z</time>
      </trkpt>
      <trkpt lat="43.36768" lon="2.45818">
        <ele>284</ele>
        <time>2019-12-18T10:31:48Z</time>
      </trkpt>
      <trkpt lat="43.36744" lon="2.45847">
        <ele>283.93</ele>
        <time>2019-12-18T10:31:58Z</time>
      </trkpt>
      <trkpt lat="43.36727" lon="2.45866">
        <ele>281.72</ele>
        <time>2019-12-18T10:32:08Z</time>
      </trkpt>
      <trkpt lat="43.36705" lon="2.45884">
        <ele>281.44</ele>
        <time>2019-12-18T10:32:18Z</time>
      </trkpt>
      <trkpt lat="43.36684" lon="2.45896">
        <ele>280.48</ele>
        <time>2019-12-18T10:32:28Z</time>
      </trkpt>
      <trkpt lat="43.36673" lon="2.459">
        <ele>288.57</ele>
        <time>2019-12-18T10:32:38Z</time>
      </trkpt>
      <trkpt lat="43.36664" lon="2.45909">
        <ele>293.75</ele>
        <time>2019-12-18T10:32:48Z</time>
      </trkpt>
      <trkpt lat="43.36651" lon="2.45917">
        <ele>295.58</ele>
        <time>2019-12-18T10:32:58Z</time>
      </trkpt>
      <trkpt lat="43.36636" lon="2.45927">
        <ele>296.7</ele>
        <time>2019-12-18T10:33:06Z</time>
      </trkpt>
      <trkpt lat="43.36611" lon="2.45939">
        <ele>297.23</ele>
        <time>2019-12-18T10:33:16Z</time>
      </trkpt>
      <trkpt lat="43.36585" lon="2.45957">
        <ele>294.9</ele>
        <time>2019-12-18T10:33:26Z</time>
      </trkpt>
      <trkpt lat="43.36558" lon="2.45984">
        <ele>294.43</ele>
        <time>2019-12-18T10:33:36Z</time>
      </trkpt>
      <trkpt lat="43.36535" lon="2.46002">
        <ele>293.22</ele>
        <time>2019-12-18T10:33:46Z</time>
      </trkpt>
      <trkpt lat="43.36514" lon="2.46022">
        <ele>291.83</ele>
        <time>2019-12-18T10:33:56Z</time>
      </trkpt>
      <trkpt lat="43.36496" lon="2.46055">
        <ele>289.45</ele>
        <time>2019-12-18T10:34:06Z</time>
      </trkpt>
      <trkpt lat="43.36469" lon="2.46087">
        <ele>292.71</ele>
        <time>2019-12-18T10:34:16Z</time>
      </trkpt>
      <trkpt lat="43.36442" lon="2.46106">
        <ele>299.13</ele>
        <time>2019-12-18T10:34:26Z</time>
      </trkpt>
      <trkpt lat="43.36413" lon="2.46105">
        <ele>297.77</ele>
        <time>2019-12-18T10:34:36Z</time>
      </trkpt>
      <trkpt lat="43.3639" lon="2.46095">
        <ele>295.33</ele>
        <time>2019-12-18T10:34:46Z</time>
      </trkpt>
      <trkpt lat="43.36364" lon="2.4609">
        <ele>297.01</ele>
        <time>2019-12-18T10:34:56Z</time>
      </trkpt>
      <trkpt lat="43.36338" lon="2.46088">
        <ele>293.67</ele>
        <time>2019-12-18T10:35:06Z</time>
      </trkpt>
      <trkpt lat="43.36308" lon="2.46094">
        <ele>292.66</ele>
        <time>2019-12-18T10:35:16Z</time>
      </trkpt>
      <trkpt lat="43.3628" lon="2.461">
        <ele>294.95</ele>
        <time>2019-12-18T10:35:26Z</time>
      </trkpt>
      <trkpt lat="43.3625" lon="2.46093">
        <ele>291.3</ele>
        <time>2019-12-18T10:35:36Z</time>
      </trkpt>
      <trkpt lat="43.36235" lon="2.46092">
        <ele>287.88</ele>
        <time>2019-12-18T10:35:46Z</time>
      </trkpt>
      <trkpt lat="43.36234" lon="2.46092">
        <ele>287.49</ele>
        <time>2019-12-18T10:35:48Z</time>
      </trkpt>
    </trkseg>
  </trk>
</gpx>